AA4439 / N117HQ 7700 Squawk Report (6th of November, 2019)

Aircraft E75S Reg No. N117HQ Age N/A
Model Emb-175 Jet engines 2 First flight 09-07
Registered 08-04-15 Rollout 09-07 Delivered 26-09-07
Construction No. 17000184 Line No. N/A Series 200LR
ADSHEX A046F2 Airline name American Eagle Airlines Owner Republic Airline
Airfield based Indianapolis-International~IN~N First tracked 2017-07-13 23:04:00

Flight history for N117HQ

Route Flight No Date Playback
Ronald Reagan Washington Natl (DCA) - Charlotte Douglas (CLT) AA4573 2019-11-23 01:54:00
Philadelphia Intl (PHL) - Ronald Reagan Washington Natl (DCA) AA4515 2019-11-23 00:43:00
Louisville International Airport (SDF) - Philadelphia Intl (PHL) AA4381 2019-11-22 21:48:00
Philadelphia Intl (PHL) - Louisville International Airport (SDF) AA4555 2019-11-22 19:42:00
Nashville Intl (BNA) - Philadelphia Intl (PHL) AA4640 2019-11-22 16:47:00
Charlotte Douglas (CLT) - Nashville Intl (BNA) AA4367 2019-11-22 15:02:00
Indianapolis Intl (IND) - Charlotte Douglas (CLT) AA4661 2019-11-22 12:56:00
Ronald Reagan Washington Natl (DCA) - Indianapolis Intl (IND) AA4634 2019-11-22 10:15:00
Philadelphia Intl (PHL) - Ronald Reagan Washington Natl (DCA) AA4515 2019-11-22 00:47:00
Louisville International Airport (SDF) - Philadelphia Intl (PHL) AA4381 2019-11-21 21:45:00
Philadelphia Intl (PHL) - Louisville International Airport (SDF) AA4555 2019-11-21 19:30:00
Nashville Intl (BNA) - Philadelphia Intl (PHL) AA4640 2019-11-21 16:35:00
Charlotte Douglas (CLT) - Nashville Intl (BNA) AA4367 2019-11-21 15:01:00
Philadelphia Intl (PHL) - Charlotte Douglas (CLT) AA4309 2019-11-21 13:09:00
Philadelphia Intl (PHL) - Raleigh Durham Intl (RDU) - Philadelphia Intl (PHL) AA4313 2019-11-21 00:26:00
Philadelphia Intl (PHL) - Richmond Intl (RIC) - Philadelphia Intl (PHL) AA4540 2019-11-20 20:35:00
George Bush Intercontinental (IAH) - Philadelphia Intl (PHL) AA4487 2019-11-20 16:50:00
Philadelphia Intl (PHL) - George Bush Intercontinental (IAH) AA4542 2019-11-20 02:57:00
Philadelphia Intl (PHL) - Pittsburgh Intl (PIT) - Philadelphia Intl (PHL) AA4355 2019-11-19 23:57:00
La Guardia (LGA) - Pittsburgh Intl (PIT) AA4353 2019-11-19 04:36:00
Time Lat Lon Altitude Heading Speed Vertical Rate
2019-11-07 02:25:04 GMT 33.620304 -84.463005 925 90 121 -640
2019-11-07 02:24:56 GMT 33.620270 -84.469223 1,025 90 118 -576
2019-11-07 02:24:41 GMT 33.620316 -84.478302 1,150 90 116 -640
2019-11-07 02:24:34 GMT 33.620258 -84.482346 1,225 90 116 -768
2019-11-07 02:24:23 GMT 33.620304 -84.490067 1,350 89 116 -640
2019-11-07 02:24:13 GMT 33.620270 -84.496132 1,500 90 117 -448
2019-11-07 02:24:04 GMT 33.620258 -84.502197 1,525 90 117 -448
2019-11-07 02:23:55 GMT 33.620258 -84.507980 1,625 90 119 -704
2019-11-07 02:23:46 GMT 33.620258 -84.513985 1,725 90 119 -640
2019-11-07 02:23:31 GMT 33.620316 -84.528023 2,775 85 184 -1728
2019-11-07 02:23:24 GMT 33.620316 -84.528023 1,950 90 122 -704
2019-11-07 02:23:10 GMT 33.620491 -84.537849 2,025 90 122 -384
2019-11-07 02:23:02 GMT 33.620499 -84.542931 2,125 88 125 -1024
2019-11-07 02:22:56 GMT 33.620445 -84.547234 2,225 89 127 -960
2019-11-07 02:22:53 GMT 33.620445 -84.549232 2,300 90 128 -768
2019-11-07 02:22:43 GMT 33.620491 -84.556618 2,400 91 128 -576
2019-11-07 02:22:33 GMT 33.620682 -84.563896 2,525 91 132 -960
2019-11-07 02:22:23 GMT 33.620724 -84.571548 2,700 89 140 -1024
2019-11-07 02:22:09 GMT 33.620544 -84.582619 2,975 89 149 -1216
2019-11-07 02:22:01 GMT 33.620632 -84.588890 3,050 91 160 -320
2019-11-07 02:21:47 GMT 33.620399 -84.602165 3,300 86 178 -2112
2019-11-07 02:21:40 GMT 33.619904 -84.609077 3,500 84 181 -1664
2019-11-07 02:21:31 GMT 33.619217 -84.618881 3,775 86 187 -1792
2019-11-07 02:21:20 GMT 33.618484 -84.629761 4,050 82 195 -1472
2019-11-07 02:21:14 GMT 33.617477 -84.637161 4,200 76 199 -960
2019-11-07 02:21:10 GMT 33.616722 -84.641251 4,250 76 199 -768
2019-11-07 02:21:03 GMT 33.614906 -84.648628 4,250 67 213 512
2019-11-07 02:20:56 GMT 33.611252 -84.656494 4,225 40 237 -384
2019-11-07 02:20:45 GMT 33.601685 -84.665581 4,325 28 244 -960
2019-11-07 02:20:38 GMT 33.595261 -84.667969 4,500 9 249 -1792
2019-11-07 02:20:28 GMT 33.583145 -84.667931 4,800 352 246 -1600
2019-11-07 02:20:18 GMT 33.572495 -84.663849 4,950 333 247 -384
2019-11-07 02:20:07 GMT 33.562115 -84.654579 5,050 307 249 -1920
2019-11-07 02:19:57 GMT 33.555504 -84.643311 5,350 293 242 -1536
2019-11-07 02:19:47 GMT 33.551781 -84.630836 5,575 283 240 -704
2019-11-07 02:19:42 GMT 33.550896 -84.624428 5,625 277 242 -640
2019-11-07 02:19:37 GMT 33.550526 -84.617561 5,675 272 245 -704
2019-11-07 02:19:24 GMT 33.550385 -84.600388 5,925 270 248 -1600
2019-11-07 02:19:15 GMT 33.550644 -84.588112 6,200 268 245 -2048
2019-11-07 02:19:09 GMT 33.550873 -84.579926 6,400 269 242 -2048
2019-11-07 02:19:02 GMT 33.551102 -84.569221 9,625 270 243 -1536
2019-11-07 02:18:54 GMT 33.551376 -84.559753 6,825 268 241 -1280
2019-11-07 02:18:51 GMT 33.551514 -84.555382 6,900 268 241 -1216
2019-11-07 02:18:43 GMT 33.551788 -84.545288 7,050 269 243 -1472
2019-11-07 02:18:33 GMT 33.552059 -84.531898 7,325 269 242 -1728
2019-11-07 02:18:23 GMT 33.552433 -84.518394 7,575 268 242 -1408
2019-11-07 02:18:13 GMT 33.553085 -84.504433 7,825 266 243 -1472
2019-11-07 02:18:03 GMT 33.553986 -84.490189 8,125 266 240 -2048
2019-11-07 02:17:52 GMT 33.555599 -84.472618 8,625 261 233 -1984
2019-11-07 02:17:42 GMT 33.557419 -84.463898 8,775 252 233 -1152
2019-11-07 02:17:39 GMT 33.558609 -84.459923 8,850 248 234 -960
2019-11-07 02:17:31 GMT 33.561928 -84.451279 8,950 244 237 -960
2019-11-07 02:17:28 GMT 33.563370 -84.447754 9,000 245 238 -1088
2019-11-07 02:17:21 GMT 33.566803 -84.438957 9,175 246 238 -1408
2019-11-07 02:17:18 GMT 33.568169 -84.435310 9,250 245 238 -1728
2019-11-07 02:17:11 GMT 33.571564 -84.426666 9,475 246 235 -2176
2019-11-07 02:17:07 GMT 33.573101 -84.422440 9,625 247 232 -2240
2019-11-07 02:16:58 GMT 33.577057 -84.410316 9,950 254 227 -1536
2019-11-07 02:16:49 GMT 33.578690 -84.401031 10,100 262 227 -1024
2019-11-07 02:16:46 GMT 33.579163 -84.395798 10,175 267 225 -1280
2019-11-07 02:16:39 GMT 33.579247 -84.388618 10,275 271 222 -576
2019-11-07 02:16:35 GMT 33.579060 -84.382095 10,300 275 224 -256
2019-11-07 02:16:29 GMT 33.578522 -84.375839 10,325 278 229 -320
2019-11-07 02:16:26 GMT 33.578083 -84.372025 10,350 280 231 -448
2019-11-07 02:16:23 GMT 33.577606 -84.368668 10,350 281 234 -320
2019-11-07 02:16:18 GMT 33.576637 -84.362297 10,375 280 237 -192
2019-11-07 02:16:14 GMT 33.575867 -84.355209 10,425 274 242 -768
2019-11-07 02:16:09 GMT 33.575729 -84.349663 10,500 267 244 -960
2019-11-07 02:16:02 GMT 33.576599 -84.340973 10,600 258 246 -960
2019-11-07 02:15:58 GMT 33.577972 -84.335205 10,675 249 249 -1280
2019-11-07 02:15:52 GMT 33.581085 -84.327805 10,800 238 252 -1216
2019-11-07 02:15:48 GMT 33.584152 -84.322701 10,900 230 254 -1536
2019-11-07 02:15:42 GMT 33.589233 -84.316933 11,050 218 257 -1536
2019-11-07 02:15:37 GMT 33.593864 -84.313255 11,175 209 259 -1600
2019-11-07 02:15:34 GMT 33.597610 -84.311096 11,375 197 263 -1408
2019-11-07 02:15:31 GMT 33.599960 -84.309937 11,300 200 262 -1344
2019-11-07 02:15:27 GMT 33.604889 -84.307961 11,775 197 262 -1472
2019-11-07 02:15:20 GMT 33.616745 -84.303925 11,625 197 265 -1088
2019-11-07 02:15:14 GMT 33.622375 -84.301964 11,725 197 267 -1408
2019-11-07 02:15:08 GMT 33.627686 -84.300056 11,850 197 268 -1216
2019-11-07 02:15:05 GMT 33.632355 -84.298378 11,900 197 268 -1152
2019-11-07 02:14:56 GMT 33.641907 -84.295235 12,050 196 272 -896
2019-11-07 02:14:53 GMT 33.645351 -84.294144 12,100 195 274 -1408
2019-11-07 02:14:49 GMT 33.650703 -84.292542 12,175 195 275 -1152
2019-11-07 02:14:46 GMT 33.654465 -84.291367 12,200 194 278 -1216
2019-11-07 02:14:42 GMT 33.661411 -84.289398 12,350 194 280 -1216
2019-11-07 02:14:37 GMT 33.666275 -84.288063 12,450 193 283 -1344
2019-11-07 02:14:34 GMT 33.670853 -84.286827 12,500 193 283 -1600
2019-11-07 02:14:28 GMT 33.676987 -84.285538 12,650 190 284 -1856
2019-11-07 02:14:25 GMT 33.681614 -84.285049 12,775 183 287 -2176
2019-11-07 02:14:22 GMT 33.686920 -84.285110 12,950 175 287 -2624
2019-11-07 02:14:15 GMT 33.695114 -84.286491 13,225 167 287 -2816
2019-11-07 02:14:11 GMT 33.700241 -84.288177 14,175 119 306 -384
2019-11-07 02:14:04 GMT 33.707657 -84.291931 13,675 151 288 -2560
2019-11-07 02:14:00 GMT 33.712280 -84.295235 13,800 148 288 -2368
2019-11-07 02:13:55 GMT 33.717819 -84.300453 14,050 135 294 -1472
2019-11-07 02:13:51 GMT 33.722534 -84.306396 14,100 129 297 -1088
2019-11-07 02:13:47 GMT 33.725052 -84.310318 14,150 123 302 -576
2019-11-07 02:13:42 GMT 33.729309 -84.319000 14,175 111 313 -128
2019-11-07 02:13:37 GMT 33.731506 -84.325676 14,175 59 295 -1920
2019-11-07 02:13:33 GMT 33.733009 -84.332253 14,175 101 322 192
2019-11-07 02:13:30 GMT 33.733986 -84.340782 14,175 94 326 128
2019-11-07 02:13:23 GMT 33.732590 -84.360924 14,225 80 326 -640
2019-11-07 02:13:18 GMT 33.732590 -84.360924 14,250 75 320 -960
2019-11-07 02:13:15 GMT 33.731461 -84.366089 14,325 71 314 -1280
2019-11-07 02:13:12 GMT 33.730545 -84.369339 14,350 69 311 -1344
2019-11-07 02:13:08 GMT 33.727699 -84.377174 14,500 63 301 -1728
2019-11-07 02:13:02 GMT 33.723907 -84.384865 14,650 54 289 -1984
2019-11-07 02:12:57 GMT 33.719925 -84.390755 14,775 46 280 -1024
2019-11-07 02:12:53 GMT 33.716389 -84.394974 14,825 41 277 -512
2019-11-07 02:12:47 GMT 33.710358 -84.400223 14,800 30 273 640
2019-11-07 02:12:43 GMT 33.703583 -84.404144 14,700 16 270 896
2019-11-07 02:12:38 GMT 33.698048 -84.406128 14,625 12 268 832
2019-11-07 02:12:30 GMT 33.690041 -84.407387 14,550 3 265 704
2019-11-07 02:12:26 GMT 33.684448 -84.407394 14,525 0 264 832
2019-11-07 02:12:21 GMT 33.678543 -84.406616 14,425 351 260 960
2019-11-07 02:12:17 GMT 33.672585 -84.405045 14,350 346 260 832
2019-11-07 02:12:10 GMT 33.666367 -84.402748 14,275 341 259 768
2019-11-07 02:12:05 GMT 33.660339 -84.399948 14,200 337 257 1152
2019-11-07 02:12:00 GMT 33.654755 -84.396744 14,100 333 258 960
2019-11-07 02:11:56 GMT 33.649979 -84.393555 14,050 329 257 768
2019-11-07 02:11:49 GMT 33.644093 -84.389191 14,025 328 256 192
2019-11-07 02:11:45 GMT 33.639580 -84.385818 14,025 328 253 -256
2019-11-07 02:11:39 GMT 33.633362 -84.381165 14,050 329 249 -512
2019-11-07 02:11:35 GMT 33.629196 -84.378143 14,125 329 242 -256
2019-11-07 02:11:29 GMT 33.623886 -84.374382 14,125 329 238 -320
2019-11-07 02:11:24 GMT 33.619186 -84.370995 14,125 330 234 320
2019-11-07 02:11:21 GMT 33.615921 -84.368721 14,100 331 231 448
2019-11-07 02:11:18 GMT 33.614044 -84.367432 14,075 332 230 832
2019-11-07 02:11:13 GMT 33.609318 -84.364471 14,000 334 229 1216
2019-11-07 02:11:08 GMT 33.604340 -84.361382 13,875 332 228 1600
2019-11-07 02:11:04 GMT 33.599960 -84.358231 13,650 323 229 3648
2019-11-07 02:10:58 GMT 33.595493 -84.353600 13,375 313 234 2944
2019-11-07 02:10:53 GMT 33.592606 -84.348335 13,150 293 237 2176
2019-11-07 02:10:47 GMT 33.591248 -84.341476 13,075 273 231 320
2019-11-07 02:10:43 GMT 33.591934 -84.335037 13,075 253 219 -128
2019-11-07 02:10:38 GMT 33.593811 -84.330322 13,025 234 208 320
2019-11-07 02:10:34 GMT 33.596703 -84.326363 12,650 210 200 2176
2019-11-07 02:10:27 GMT 33.601917 -84.322815 12,775 197 201 3264
2019-11-07 02:10:20 GMT 33.611927 -84.321960 11,750 160 229 4032
2019-11-07 02:10:16 GMT 33.611927 -84.321960 12,050 168 222 4352
2019-11-07 02:10:10 GMT 33.617840 -84.324364 11,650 152 235 3712
2019-11-07 02:10:06 GMT 33.622055 -84.327919 11,375 138 242 3072
2019-11-07 02:10:02 GMT 33.624588 -84.331398 11,225 114 249 2304
2019-11-07 02:09:59 GMT 33.626312 -84.334976 11,100 114 249 2304
2019-11-07 02:09:56 GMT 33.627567 -84.339523 11,000 101 250 1856
2019-11-07 02:09:51 GMT 33.627914 -84.347984 10,850 83 245 896
2019-11-07 02:09:45 GMT 33.626770 -84.353760 10,775 69 238 1216
2019-11-07 02:09:39 GMT 33.623703 -84.360352 10,600 51 230 1920
2019-11-07 02:09:33 GMT 33.618675 -84.365669 10,375 35 224 2496
2019-11-07 02:09:30 GMT 33.615143 -84.367714 10,150 20 220 3648
2019-11-07 02:09:22 GMT 33.606899 -84.369736 9,800 359 216 1600
2019-11-07 02:09:18 GMT 33.603973 -84.369560 9,725 353 212 1728
2019-11-07 02:09:14 GMT 33.600540 -84.368721 9,575 343 205 2432
2019-11-07 02:09:09 GMT 33.595119 -84.365211 9,250 322 200 3520
2019-11-07 02:09:04 GMT 33.592621 -84.362167 9,000 308 199 4224
2019-11-07 02:08:58 GMT 33.590012 -84.356331 8,600 289 203 3840
2019-11-07 02:08:51 GMT 33.588978 -84.347481 8,225 272 205 1984
2019-11-07 02:08:48 GMT 33.589050 -84.342773 8,150 266 199 384
2019-11-07 02:08:43 GMT 33.589325 -84.339684 8,150 263 193 0
2019-11-07 02:08:39 GMT 33.590057 -84.335648 8,150 251 173 448
2019-11-07 02:08:33 GMT 33.591797 -84.330322 8,025 242 163 1920
2019-11-07 02:08:29 GMT 33.593304 -84.327560 7,875 234 158 3264
2019-11-07 02:08:25 GMT 33.595402 -84.324646 7,525 225 157 5120
2019-11-07 02:08:22 GMT 33.596565 -84.323441 7,325 220 159 5952
2019-11-07 02:08:18 GMT 33.599262 -84.321159 6,875 212 166 6784
2019-11-07 02:08:14 GMT 33.602291 -84.319550 6,375 200 180 7360
2019-11-07 02:08:11 GMT 33.604477 -84.318726 6,075 196 191 6528
2019-11-07 02:08:08 GMT 33.607407 -84.318047 5,800 189 203 4224
2019-11-07 02:08:02 GMT 33.613602 -84.317947 5,575 170 200 1088
2019-11-07 02:07:59 GMT 33.616608 -84.318832 5,550 157 190 768
2019-11-07 02:07:53 GMT 33.623981 -84.324646 5,425 137 186 1536
2019-11-07 02:07:48 GMT 33.623981 -84.324646 5,350 130 185 1280
2019-11-07 02:07:43 GMT 33.626869 -84.329163 5,225 122 186 1856
2019-11-07 02:07:40 GMT 33.627800 -84.331055 5,150 119 189 2304
2019-11-07 02:07:37 GMT 33.629333 -84.334702 4,950 114 198 3840
2019-11-07 02:07:33 GMT 33.631199 -84.339928 4,625 110 205 3584
2019-11-07 02:07:30 GMT 33.631477 -84.340782 4,575 109 207 3328
2019-11-07 02:07:27 GMT 33.632629 -84.345009 4,375 103 206 2752
2019-11-07 02:07:20 GMT 33.634048 -84.352638 4,100 98 205 2048
2019-11-07 02:07:12 GMT 33.634457 -84.361839 3,875 93 202 1600
2019-11-07 02:07:07 GMT 33.634460 -84.367599 3,675 90 187 2560
2019-11-07 02:06:56 GMT 33.634502 -84.378548 3,200 90 183 1984
2019-11-07 02:06:49 GMT 33.634548 -84.384956 2,975 90 175 1920
2019-11-07 02:06:44 GMT 33.634644 -84.389740 2,875 91 169 1408
2019-11-07 02:06:39 GMT 33.634781 -84.394562 2,750 91 158 1152
2019-11-07 02:06:33 GMT 33.634876 -84.399490 2,650 91 149 1088
2019-11-07 02:06:28 GMT 33.634964 -84.403084 2,550 91 138 1536
2019-11-07 02:06:24 GMT 33.635010 -84.406166 2,425 88 132 1920
2019-11-07 02:06:18 GMT 33.634876 -84.410706 2,175 88 128 2880
2019-11-07 02:06:14 GMT 33.634781 -84.414070 1,925 88 129 3136
2019-11-07 02:06:03 GMT 33.634735 -84.421577 1,325 90 133 3968
We lost coverage of the aircraft here for a total of 47 minutes
2019-11-07 01:19:05 GMT 33.649521 -84.445625 800 89 124 -704
2019-11-07 01:19:02 GMT 33.649494 -84.447670 850 89 123 -704
2019-11-07 01:18:50 GMT 33.649494 -84.455338 975 90 120 -704
2019-11-07 01:18:41 GMT 33.649494 -84.461227 1,075 89 120 -704
2019-11-07 01:18:26 GMT 33.649521 -84.472084 1,225 90 122 -704
2019-11-07 01:18:20 GMT 33.649567 -84.475334 1,275 90 121 -512
2019-11-07 01:18:14 GMT 33.649567 -84.479370 1,325 89 116 -704
2019-11-07 01:18:11 GMT 33.649521 -84.481949 1,375 89 116 -640
2019-11-07 01:17:59 GMT 33.649521 -84.488846 1,500 90 116 -640
2019-11-07 01:17:50 GMT 33.649521 -84.495178 1,575 90 117 -512
2019-11-07 01:17:43 GMT 33.649540 -84.499229 1,650 90 118 -768
2019-11-07 01:17:33 GMT 33.649567 -84.505768 1,750 90 119 -640
2019-11-07 01:17:20 GMT 33.649586 -84.514565 1,900 90 121 -576
2019-11-07 01:17:10 GMT 33.649586 -84.521141 2,325 89 137 -768
2019-11-07 01:17:02 GMT 33.649586 -84.526863 2,075 90 131 -704
2019-11-07 01:16:52 GMT 33.649540 -84.534760 2,325 90 146 -896
2019-11-07 01:16:40 GMT 33.649494 -84.544487 2,375 90 150 -896
2019-11-07 01:16:31 GMT 33.649475 -84.552017 2,525 90 162 -896
2019-11-07 01:16:16 GMT 33.649494 -84.564972 2,775 90 162 -960
2019-11-07 01:16:10 GMT 33.649494 -84.570412 2,825 90 164 -832
2019-11-07 01:16:00 GMT 33.649521 -84.579819 3,150 159 214 128
2019-11-07 01:15:48 GMT 33.649521 -84.591026 3,150 159 214 128
2019-11-07 01:15:39 GMT 33.649494 -84.608971 4,650 159 214 128
2019-11-07 01:15:28 GMT 33.649494 -84.608971 3,450 89 171 -960
2019-11-07 01:15:18 GMT 33.649403 -84.619164 3,625 89 179 -832
2019-11-07 01:15:08 GMT 33.649353 -84.628487 4,650 159 214 128
2019-11-07 01:14:57 GMT 33.649292 -84.640350 3,950 89 188 -896
2019-11-07 01:14:47 GMT 33.649216 -84.650230 4,075 89 191 -896
2019-11-07 01:14:37 GMT 33.649155 -84.661369 4,225 89 195 -704
2019-11-07 01:14:26 GMT 33.649075 -84.672714 4,425 89 197 -1536
2019-11-07 01:14:21 GMT 33.648983 -84.678558 4,650 159 214 128
2019-11-07 01:14:16 GMT 33.648880 -84.684525 4,575 88 202 -768
2019-11-07 01:14:06 GMT 33.648842 -84.695892 4,650 91 209 -192
2019-11-07 01:14:01 GMT 33.649017 -84.701225 4,650 159 214 128
2019-11-07 01:13:54 GMT 33.649586 -84.709335 4,650 96 218 -64
2019-11-07 01:13:45 GMT 33.650845 -84.721245 4,650 95 225 0
2019-11-07 01:13:34 GMT 33.651764 -84.734077 4,650 95 225 -64
2019-11-07 01:13:25 GMT 33.653320 -84.746513 4,650 102 223 64
2019-11-07 01:13:13 GMT 33.657223 -84.759521 4,675 117 220 -128
2019-11-07 01:13:03 GMT 33.662750 -84.769501 4,675 133 217 -64
2019-11-07 01:12:53 GMT 33.671654 -84.776520 4,650 162 214 64
2019-11-07 01:12:43 GMT 33.680969 -84.778358 4,650 176 213 0
2019-11-07 01:12:30 GMT 33.695114 -84.779488 4,650 176 213 64
2019-11-07 01:12:26 GMT 33.697266 -84.779701 4,650 176 213 -64
2019-11-07 01:12:22 GMT 33.707081 -84.780235 4,650 178 213 -192
2019-11-07 01:12:08 GMT 33.715458 -84.779266 4,650 197 212 -64
2019-11-07 01:12:02 GMT 33.729050 -84.766388 4,675 256 220 384
2019-11-07 01:11:50 GMT 33.729050 -84.766388 4,675 250 219 256
2019-11-07 01:11:41 GMT 33.731892 -84.755569 4,650 266 223 128
2019-11-07 01:11:30 GMT 33.732193 -84.741699 4,650 270 226 -128
2019-11-07 01:11:20 GMT 33.732239 -84.729477 4,650 270 226 0
2019-11-07 01:11:10 GMT 33.732265 -84.716553 4,650 270 225 0
2019-11-07 01:10:59 GMT 33.732311 -84.703850 4,650 270 225 64
2019-11-07 01:10:48 GMT 33.732330 -84.688446 4,650 270 225 64
2019-11-07 01:10:36 GMT 33.732403 -84.674545 4,675 270 224 -192
2019-11-07 01:10:26 GMT 33.732422 -84.661034 4,825 270 226 -1024
2019-11-07 01:10:18 GMT 33.732468 -84.651901 4,950 270 228 -1024
2019-11-07 01:10:06 GMT 33.732468 -84.636314 5,150 270 231 -1152
2019-11-07 01:09:56 GMT 33.732513 -84.622696 5,375 270 232 -1216
2019-11-07 01:09:53 GMT 33.732494 -84.619331 5,975 270 231 -1408
2019-11-07 01:09:44 GMT 33.732513 -84.605492 6,200 270 231 -1408
2019-11-07 01:09:34 GMT 33.732513 -84.596016 5,775 270 231 -1344
2019-11-07 01:09:25 GMT 33.732559 -84.583015 6,050 270 230 -1408
2019-11-07 01:09:18 GMT 33.732544 -84.574471 6,200 270 229 -1408
2019-11-07 01:09:15 GMT 33.732559 -84.572136 6,325 270 229 -1408
2019-11-07 01:09:10 GMT 33.732590 -84.565201 6,375 270 228 -1408
2019-11-07 01:09:03 GMT 33.732590 -84.556442 6,500 270 228 -1344
2019-11-07 01:08:59 GMT 33.732605 -84.552017 6,825 270 227 -1408
2019-11-07 01:08:53 GMT 33.732605 -84.543327 6,775 270 227 -1472
2019-11-07 01:08:50 GMT 33.732590 -84.538483 6,850 270 226 -1472
2019-11-07 01:08:43 GMT 33.732635 -84.530411 7,000 270 225 -1408
2019-11-07 01:08:38 GMT 33.732635 -84.525780 7,100 270 225 -1408
2019-11-07 01:08:33 GMT 33.732635 -84.517654 7,250 270 225 -1280
2019-11-07 01:08:29 GMT 33.732635 -84.512558 7,325 270 225 -1280
2019-11-07 01:08:24 GMT 33.732651 -84.507225 7,400 270 225 -1216
2019-11-07 01:08:21 GMT 33.732651 -84.504257 7,450 270 225 -1216
2019-11-07 01:08:15 GMT 33.732651 -84.496071 7,600 270 226 -1216
2019-11-07 01:08:11 GMT 33.732651 -84.491592 7,675 270 226 -1216
2019-11-07 01:08:07 GMT 33.732651 -84.485870 7,750 270 226 -1216
2019-11-07 01:08:04 GMT 33.732651 -84.481781 7,825 270 227 -1216
2019-11-07 01:08:01 GMT 33.732635 -84.477943 7,875 270 227 -1216
2019-11-07 01:07:57 GMT 33.732651 -84.473541 7,950 270 227 -1216
2019-11-07 01:07:51 GMT 33.732651 -84.465858 8,075 270 228 -1216
2019-11-07 01:07:46 GMT 33.732635 -84.459457 8,175 271 228 -1216
2019-11-07 01:07:40 GMT 33.732635 -84.452705 8,250 271 229 -1216
2019-11-07 01:07:36 GMT 33.732590 -84.446587 8,375 270 229 -1216
2019-11-07 01:07:31 GMT 33.732605 -84.441589 8,450 270 230 -1216
2019-11-07 01:07:26 GMT 33.732590 -84.434113 8,575 270 230 -1344
2019-11-07 01:07:20 GMT 33.732635 -84.427238 8,750 270 230 -1408
2019-11-07 01:07:16 GMT 33.732651 -84.420235 8,825 270 230 -1472
2019-11-07 01:07:10 GMT 33.732681 -84.413223 8,950 270 230 -1408
2019-11-07 01:07:05 GMT 33.732731 -84.407501 9,050 270 229 -1408
2019-11-07 01:06:58 GMT 33.732697 -84.399048 9,175 270 229 -1408
2019-11-07 01:06:55 GMT 33.732697 -84.392319 9,350 270 228 -1408
2019-11-07 01:06:47 GMT 33.732697 -84.383522 9,500 270 228 -1344
2019-11-07 01:06:42 GMT 33.732731 -84.379295 9,575 270 228 -1280
2019-11-07 01:06:39 GMT 33.732731 -84.372543 9,675 270 229 -1216
2019-11-07 01:06:36 GMT 33.732742 -84.370125 9,750 270 229 -1152
2019-11-07 01:06:33 GMT 33.732731 -84.364182 9,800 270 230 -1152
2019-11-07 01:06:29 GMT 33.732731 -84.362122 9,875 270 230 -1152
2019-11-07 01:06:25 GMT 33.732731 -84.355316 9,925 270 232 -1024
2019-11-07 01:06:20 GMT 33.732742 -84.350899 10,000 270 232 -1024
2019-11-07 01:06:17 GMT 33.732697 -84.333412 10,075 271 234 -1024
2019-11-07 01:06:08 GMT 33.732697 -84.333412 10,225 270 236 -1344
2019-11-07 01:06:03 GMT 33.732697 -84.328087 10,325 270 235 -1536
2019-11-07 01:05:57 GMT 33.732742 -84.320183 10,500 270 235 -1664
2019-11-07 01:05:53 GMT 33.732731 -84.313545 10,600 270 234 -1408
2019-11-07 01:05:50 GMT 33.732742 -84.310150 10,650 270 233 -320
2019-11-07 01:05:46 GMT 33.732777 -84.305702 10,650 270 234 0
2019-11-07 01:05:41 GMT 33.732777 -84.300446 10,650 270 234 0
2019-11-07 01:05:37 GMT 33.732742 -84.288063 10,650 271 234 -64
2019-11-07 01:05:33 GMT 33.732742 -84.288063 10,650 271 234 -64
2019-11-07 01:05:25 GMT 33.732742 -84.278534 10,650 271 234 0
2019-11-07 01:05:17 GMT 33.732742 -84.268501 10,650 270 233 64
2019-11-07 01:05:14 GMT 33.732731 -84.265198 10,650 270 233 64
2019-11-07 01:05:05 GMT 33.732697 -84.252190 10,650 270 232 0
2019-11-07 01:05:00 GMT 33.732697 -84.246979 10,650 270 232 64
2019-11-07 01:04:54 GMT 33.732681 -84.238815 10,650 270 232 64
2019-11-07 01:04:51 GMT 33.732651 -84.234367 10,650 271 233 0
2019-11-07 01:04:44 GMT 33.732635 -84.224739 10,675 271 233 -384
2019-11-07 01:04:40 GMT 33.732651 -84.221245 10,700 271 233 -704
2019-11-07 01:04:35 GMT 33.732651 -84.214973 10,775 271 233 -1024
2019-11-07 01:04:32 GMT 33.732635 -84.211006 10,825 271 233 -1024
2019-11-07 01:04:24 GMT 33.732590 -84.200996 10,975 271 234 -1024
2019-11-07 01:04:21 GMT 33.732590 -84.195274 11,000 271 234 -1024
2019-11-07 01:04:12 GMT 33.732559 -84.184418 11,175 271 236 -1088
2019-11-07 01:04:09 GMT 33.732513 -84.181229 11,225 271 236 -1088
2019-11-07 01:04:04 GMT 33.732422 -84.174278 11,325 271 237 -1088
2019-11-07 01:04:00 GMT 33.732376 -84.167885 11,350 271 237 -1088
2019-11-07 01:03:52 GMT 33.732681 -84.156937 11,550 264 238 -1024
2019-11-07 01:03:49 GMT 33.732964 -84.154305 11,600 257 238 -1088
2019-11-07 01:03:43 GMT 33.735672 -84.143784 11,675 247 238 -128
2019-11-07 01:03:37 GMT 33.738781 -84.137138 11,650 240 238 128
2019-11-07 01:03:31 GMT 33.741901 -84.132561 11,650 225 241 64
2019-11-07 01:03:27 GMT 33.745193 -84.129097 11,650 217 242 -64
2019-11-07 01:03:20 GMT 33.751492 -84.124146 11,650 211 243 -64
2019-11-07 01:03:16 GMT 33.754936 -84.121681 11,650 211 243 -64
2019-11-07 01:03:10 GMT 33.761639 -84.116936 11,650 211 243 0
2019-11-07 01:03:05 GMT 33.765503 -84.114189 11,650 211 243 0
2019-11-07 01:03:02 GMT 33.768906 -84.111778 11,650 211 243 0
2019-11-07 01:02:59 GMT 33.771832 -84.109673 11,650 211 243 0
2019-11-07 01:02:55 GMT 33.775326 -84.107208 11,650 211 243 0
2019-11-07 01:02:50 GMT 33.780445 -84.103600 11,650 211 243 0
2019-11-07 01:02:46 GMT 33.784882 -84.100395 11,650 211 243 0
2019-11-07 01:02:41 GMT 33.792343 -84.095131 11,650 211 243 0
2019-11-07 01:02:37 GMT 33.795296 -84.093018 11,650 211 242 0
2019-11-07 01:02:30 GMT 33.799301 -84.090141 13,050 211 247 -1024
2019-11-07 01:02:27 GMT 33.802505 -84.087898 13,050 211 247 -1024
2019-11-07 01:02:24 GMT 33.805573 -84.085709 11,650 211 242 0
2019-11-07 01:02:20 GMT 33.809097 -84.083191 11,650 211 242 64
2019-11-07 01:02:15 GMT 33.815369 -84.078758 11,650 211 243 64
2019-11-07 01:02:10 GMT 33.819260 -84.075958 11,650 211 243 -320
2019-11-07 01:02:06 GMT 33.822575 -84.073624 11,675 211 243 -256
2019-11-07 01:01:57 GMT 33.832771 -84.066353 11,800 211 242 -1024
2019-11-07 01:01:49 GMT 33.839493 -84.061607 11,900 211 241 -1024
2019-11-07 01:01:45 GMT 33.844574 -84.057968 12,000 211 242 -1024
2019-11-07 01:01:36 GMT 33.852509 -84.052338 12,125 211 241 -1024
2019-11-07 01:01:32 GMT 33.855301 -84.050385 12,175 211 241 -1024
2019-11-07 01:01:28 GMT 33.859772 -84.047203 12,250 211 243 -1024
2019-11-07 01:01:25 GMT 33.865997 -84.042778 12,375 211 243 -1024
2019-11-07 01:01:17 GMT 33.869640 -84.040146 12,425 211 243 -1024
2019-11-07 01:01:12 GMT 33.875088 -84.036255 12,525 211 244 -1024
2019-11-07 01:01:04 GMT 33.883026 -84.030609 12,675 211 244 -1024
2019-11-07 01:01:00 GMT 33.886551 -84.028091 12,725 211 245 -1024
2019-11-07 01:00:57 GMT 33.889423 -84.026009 12,775 211 245 -1024
2019-11-07 01:00:54 GMT 33.892868 -84.023552 12,825 211 245 -1024
2019-11-07 01:00:50 GMT 33.897758 -84.020058 12,925 211 246 -1024
2019-11-07 01:00:47 GMT 33.899597 -84.018784 12,950 211 246 -1024
2019-11-07 01:00:44 GMT 33.903580 -84.015923 13,025 211 246 -1024
2019-11-07 01:00:40 GMT 33.905766 -84.014336 13,050 211 247 -1024
2019-11-07 01:00:36 GMT 33.909851 -84.011444 13,125 211 247 -960
2019-11-07 01:00:32 GMT 33.914978 -84.007744 13,200 212 247 -896
2019-11-07 01:00:29 GMT 33.917404 -84.006004 13,225 212 248 -896
2019-11-07 01:00:25 GMT 33.920753 -84.003578 13,275 211 247 -896
2019-11-07 01:00:21 GMT 33.925598 -84.000122 13,325 211 247 -896
2019-11-07 01:00:15 GMT 33.930496 -83.996590 13,650 212 249 0
2019-11-07 01:00:12 GMT 33.934254 -83.993912 13,500 212 249 -704
2019-11-07 01:00:05 GMT 33.940586 -83.989334 13,550 211 250 -640
2019-11-07 00:59:59 GMT 33.947010 -83.984756 13,600 211 251 -704
2019-11-07 00:59:55 GMT 33.950966 -83.981956 13,650 211 250 -512
2019-11-07 00:59:49 GMT 33.957687 -83.977249 13,650 211 250 0
2019-11-07 00:59:40 GMT 33.965607 -83.971420 13,650 217 248 -64
2019-11-07 00:59:37 GMT 33.968307 -83.969177 13,650 217 248 -64
2019-11-07 00:59:33 GMT 33.972149 -83.965813 13,650 218 247 -64
2019-11-07 00:59:30 GMT 33.975357 -83.962845 13,650 220 247 0
2019-11-07 00:59:27 GMT 33.977417 -83.960831 13,650 221 246 0
2019-11-07 00:59:24 GMT 33.980484 -83.957573 13,650 222 245 64
2019-11-07 00:59:18 GMT 33.987511 -83.950134 13,650 222 246 0
2019-11-07 00:59:13 GMT 33.989231 -83.948250 13,650 222 245 -64
2019-11-07 00:59:09 GMT 33.993652 -83.943443 13,650 222 246 -64
2019-11-07 00:59:06 GMT 33.995590 -83.941429 13,650 222 246 0
2019-11-07 00:59:03 GMT 33.998291 -83.938515 13,650 222 246 64
2019-11-07 00:58:58 GMT 34.001896 -83.934631 13,650 222 246 64
2019-11-07 00:58:55 GMT 34.004642 -83.931770 13,650 222 246 0
2019-11-07 00:58:52 GMT 34.007385 -83.928795 13,650 222 246 0
2019-11-07 00:58:49 GMT 34.010784 -83.925133 13,650 222 246 -64
2019-11-07 00:58:45 GMT 34.015862 -83.919701 13,650 222 246 -64
2019-11-07 00:58:37 GMT 34.020813 -83.914360 13,650 223 246 0
2019-11-07 00:58:30 GMT 34.025776 -83.909058 13,650 222 245 64
2019-11-07 00:58:25 GMT 34.030525 -83.903908 13,650 222 245 0
2019-11-07 00:58:21 GMT 34.033596 -83.900581 13,650 222 244 0
2019-11-07 00:58:16 GMT 34.038712 -83.895081 13,650 222 244 0
2019-11-07 00:58:11 GMT 34.042191 -83.891319 13,650 222 243 64
2019-11-07 00:58:05 GMT 34.048279 -83.884819 13,650 222 243 64
2019-11-07 00:58:00 GMT 34.051300 -83.881569 13,650 222 246 0
2019-11-07 00:57:54 GMT 34.056686 -83.875809 13,650 222 253 -64
2019-11-07 00:57:50 GMT 34.059944 -83.872314 13,650 222 259 64
2019-11-07 00:57:43 GMT 34.067368 -83.864357 13,650 222 265 -64
2019-11-07 00:57:39 GMT 34.069767 -83.861794 13,650 222 268 -64
2019-11-07 00:57:33 GMT 34.075607 -83.855507 13,650 223 278 64
2019-11-07 00:57:30 GMT 34.079041 -83.851746 13,650 222 281 0
2019-11-07 00:57:24 GMT 34.085312 -83.845024 13,650 222 289 64
2019-11-07 00:57:19 GMT 34.089661 -83.840370 13,650 222 294 64
2019-11-07 00:57:12 GMT 34.096756 -83.832916 13,650 222 301 -64
2019-11-07 00:57:08 GMT 34.101517 -83.827927 13,675 222 306 -128
2019-11-07 00:57:02 GMT 34.107193 -83.821869 13,700 222 326 -832
2019-11-07 00:56:58 GMT 34.111588 -83.817276 13,775 222 317 -832
2019-11-07 00:56:52 GMT 34.119858 -83.808456 13,875 222 325 -832
2019-11-07 00:56:48 GMT 34.123489 -83.804688 13,925 222 328 -832
2019-11-07 00:56:41 GMT 34.131264 -83.796387 14,025 222 333 -896
2019-11-07 00:56:37 GMT 34.135498 -83.791924 14,075 222 338 -896
2019-11-07 00:56:32 GMT 34.142994 -83.783974 14,150 222 345 -896
2019-11-07 00:56:27 GMT 34.147659 -83.779045 14,200 222 350 -960
2019-11-07 00:56:21 GMT 34.156261 -83.769951 14,325 222 357 -960
2019-11-07 00:56:17 GMT 34.160683 -83.765259 14,375 222 359 -1024
2019-11-07 00:56:10 GMT 34.168945 -83.756516 14,475 222 359 -960
2019-11-07 00:56:05 GMT 34.174576 -83.750572 14,550 222 359 -960
2019-11-07 00:56:01 GMT 34.181305 -83.743401 14,625 222 359 -960
2019-11-07 00:55:56 GMT 34.186287 -83.738075 14,700 222 359 -960
2019-11-07 00:55:50 GMT 34.199478 -83.724113 14,850 222 358 -960
2019-11-07 00:55:45 GMT 34.199478 -83.724113 14,850 222 358 -960
2019-11-07 00:55:40 GMT 34.207703 -83.715363 14,975 222 359 -960
2019-11-07 00:55:35 GMT 34.212067 -83.710777 15,025 222 359 -960
2019-11-07 00:55:29 GMT 34.220364 -83.701973 15,125 222 360 -960
2019-11-07 00:55:23 GMT 34.227394 -83.694534 15,200 222 360 -896
2019-11-07 00:55:18 GMT 34.234177 -83.687401 15,300 222 362 -1024
2019-11-07 00:55:13 GMT 34.240475 -83.680687 15,375 222 362 -960
2019-11-07 00:55:08 GMT 34.247040 -83.673759 15,450 222 361 -960
2019-11-07 00:55:00 GMT 34.256580 -83.663750 15,600 221 362 -960
2019-11-07 00:54:57 GMT 34.273682 -83.645866 15,675 224 360 -896
2019-11-07 00:54:48 GMT 34.273682 -83.645866 15,775 222 361 -960
2019-11-07 00:54:43 GMT 34.277950 -83.641258 15,825 223 360 -960
2019-11-07 00:54:37 GMT 34.285770 -83.632507 15,925 224 360 -960
2019-11-07 00:54:33 GMT 34.290611 -83.626961 16,000 224 360 -960
2019-11-07 00:54:27 GMT 34.299133 -83.617226 16,100 224 360 -896
2019-11-07 00:54:23 GMT 34.302761 -83.613052 16,275 224 360 -896
2019-11-07 00:54:19 GMT 34.308838 -83.606178 16,225 224 360 -1024
2019-11-07 00:54:15 GMT 34.312225 -83.602257 16,275 224 360 -960
2019-11-07 00:54:11 GMT 34.317078 -83.596710 16,350 224 360 -896
2019-11-07 00:54:08 GMT 34.320728 -83.592567 16,425 224 360 -960
2019-11-07 00:54:05 GMT 34.324356 -83.588409 16,425 224 360 -960
2019-11-07 00:54:01 GMT 34.329208 -83.582809 16,500 224 360 -960
2019-11-07 00:53:56 GMT 34.336395 -83.574623 16,575 224 360 -960
2019-11-07 00:53:51 GMT 34.341122 -83.569283 16,725 224 360 -896
2019-11-07 00:53:47 GMT 34.346100 -83.563583 16,700 224 360 -896
2019-11-07 00:53:44 GMT 34.349361 -83.559837 16,750 224 360 -896
2019-11-07 00:53:41 GMT 34.353012 -83.555679 16,800 224 360 -896
2019-11-07 00:53:36 GMT 34.359695 -83.548058 16,875 224 360 -896
2019-11-07 00:53:33 GMT 34.365097 -83.541832 16,925 224 360 -896
2019-11-07 00:53:29 GMT 34.367432 -83.539139 16,950 224 360 -832
2019-11-07 00:53:25 GMT 34.373199 -83.532532 17,025 224 360 -832
2019-11-07 00:53:16 GMT 34.388138 -83.515434 17,225 224 361 -1024
2019-11-07 00:53:12 GMT 34.388138 -83.515434 17,225 224 361 -1024
2019-11-07 00:53:05 GMT 34.397404 -83.504845 17,350 224 362 -1344
2019-11-07 00:53:02 GMT 34.400436 -83.501305 17,400 224 365 -1664
2019-11-07 00:52:59 GMT 34.404243 -83.496948 17,500 224 364 -1536
2019-11-07 00:52:56 GMT 34.409363 -83.491104 17,600 224 364 -1664
2019-11-07 00:52:53 GMT 34.411835 -83.488243 17,675 224 364 -1664
2019-11-07 00:52:49 GMT 34.416687 -83.482750 17,775 224 365 -1728
2019-11-07 00:52:45 GMT 34.422134 -83.476479 18,000 224 365 -1664
2019-11-07 00:52:42 GMT 34.425331 -83.472801 17,975 224 366 -1600
2019-11-07 00:52:39 GMT 34.429245 -83.468346 18,050 224 367 -1536
2019-11-07 00:52:34 GMT 34.434494 -83.462296 18,150 224 367 -1408
2019-11-07 00:52:31 GMT 34.438183 -83.458038 18,225 224 367 -1344
2019-11-07 00:52:25 GMT 34.447815 -83.447044 18,350 224 367 -1024
2019-11-07 00:52:22 GMT 34.451031 -83.443336 18,400 224 367 -960
2019-11-07 00:52:12 GMT 34.462391 -83.430290 18,550 224 368 -960
2019-11-07 00:52:04 GMT 34.472534 -83.418633 18,675 224 369 -960
2019-11-07 00:52:01 GMT 34.475510 -83.415207 18,725 224 369 -960
2019-11-07 00:51:52 GMT 34.487961 -83.400917 18,875 224 369 -960
2019-11-07 00:51:43 GMT 34.499165 -83.388000 19,000 224 371 -960
2019-11-07 00:51:37 GMT 34.506363 -83.379730 19,100 224 372 -960
2019-11-07 00:51:30 GMT 34.514202 -83.370728 19,200 224 374 -960
2019-11-07 00:51:24 GMT 34.521694 -83.362083 19,300 224 374 -1024
2019-11-07 00:51:19 GMT 34.528015 -83.354843 19,400 224 375 -960
2019-11-07 00:51:16 GMT 34.533966 -83.347946 19,475 224 377 -960
2019-11-07 00:51:12 GMT 34.538635 -83.342567 19,525 224 377 -1024
2019-11-07 00:51:05 GMT 34.548203 -83.331581 19,650 224 379 -1024
2019-11-07 00:51:00 GMT 34.553284 -83.325752 19,700 224 379 -1024
2019-11-07 00:50:51 GMT 34.564682 -83.312630 19,850 224 381 -1024
2019-11-07 00:50:41 GMT 34.576767 -83.298798 20,075 224 381 -1024
2019-11-07 00:50:32 GMT 34.588593 -83.285294 20,175 224 383 -1024
2019-11-07 00:50:29 GMT 34.592178 -83.281113 20,175 224 383 -1024
2019-11-07 00:50:26 GMT 34.598099 -83.274292 20,275 224 384 -1024
2019-11-07 00:50:20 GMT 34.604324 -83.267174 20,375 224 386 -1024
2019-11-07 00:50:10 GMT 34.617081 -83.252563 20,525 224 387 -1024
2019-11-07 00:49:59 GMT 34.631424 -83.236122 20,700 224 388 -1024
2019-11-07 00:49:49 GMT 34.645065 -83.220482 20,875 224 389 -1024
2019-11-07 00:49:39 GMT 34.657394 -83.206390 21,050 224 390 -1024
2019-11-07 00:49:36 GMT 34.662369 -83.200638 21,125 224 391 -1024
2019-11-07 00:49:28 GMT 34.672302 -83.189262 21,250 224 393 -1024
2019-11-07 00:49:23 GMT 34.680359 -83.180016 21,275 224 394 -1024
2019-11-07 00:49:18 GMT 34.686443 -83.172974 21,425 224 395 -1088
2019-11-07 00:49:08 GMT 34.699493 -83.157982 21,650 224 396 -1024
2019-11-07 00:49:04 GMT 34.704041 -83.152824 21,650 224 396 -1024
2019-11-07 00:48:57 GMT 34.713730 -83.141670 21,775 224 394 -1088
2019-11-07 00:48:49 GMT 34.725128 -83.128571 21,925 224 393 -960
2019-11-07 00:48:46 GMT 34.727646 -83.125641 21,950 224 392 -960
2019-11-07 00:48:38 GMT 34.739422 -83.112030 22,100 224 390 -1024
2019-11-07 00:48:35 GMT 34.741287 -83.109833 22,125 224 390 -1024
2019-11-07 00:48:26 GMT 34.754379 -83.094757 22,300 224 388 -1088
2019-11-07 00:48:15 GMT 34.769215 -83.077583 22,525 224 389 -1024
2019-11-07 00:48:06 GMT 34.780472 -83.064659 22,650 224 389 -1024
2019-11-07 00:47:53 GMT 34.797775 -83.044647 22,800 224 391 -1024
2019-11-07 00:47:50 GMT 34.802219 -83.039536 22,925 224 391 -1024
2019-11-07 00:47:43 GMT 34.822887 -83.015671 23,050 224 393 -1024
2019-11-07 00:47:33 GMT 34.822887 -83.015671 23,175 224 395 -1088
2019-11-07 00:47:24 GMT 34.836456 -82.999969 23,350 224 398 -1024
2019-11-07 00:47:14 GMT 34.863529 -82.968697 23,600 224 402 -1088
2019-11-07 00:47:03 GMT 34.863529 -82.968697 23,700 224 403 -1024
2019-11-07 00:46:52 GMT 34.877335 -82.952721 23,900 224 404 -1280
2019-11-07 00:46:42 GMT 34.891834 -82.935966 24,075 224 404 -1024
2019-11-07 00:46:32 GMT 34.907009 -82.918449 24,250 224 405 -1024
2019-11-07 00:46:22 GMT 34.919312 -82.904289 24,400 224 406 -1024
2019-11-07 00:46:12 GMT 34.933273 -82.887924 24,575 225 405 -1024
2019-11-07 00:46:01 GMT 34.961472 -82.854630 24,800 225 406 -1024
2019-11-07 00:45:50 GMT 34.961472 -82.854630 24,925 225 406 -1024
2019-11-07 00:45:39 GMT 34.978977 -82.833878 25,100 225 405 -1024
2019-11-07 00:45:30 GMT 34.989349 -82.821609 25,275 225 404 -1024
2019-11-07 00:45:27 GMT 34.994576 -82.815453 25,325 225 403 -1024
2019-11-07 00:45:20 GMT 35.003139 -82.805267 25,450 225 403 -1024
2019-11-07 00:45:09 GMT 35.016815 -82.789154 25,600 225 403 -1024
2019-11-07 00:44:59 GMT 35.030731 -82.772675 25,800 225 403 -1024
2019-11-07 00:44:49 GMT 35.044434 -82.756462 25,950 225 405 -1024
2019-11-07 00:44:38 GMT 35.058395 -82.739922 26,100 225 408 -1024
2019-11-07 00:44:28 GMT 35.072689 -82.723045 26,300 225 410 -1024
2019-11-07 00:44:17 GMT 35.088425 -82.704330 26,500 225 412 -1024
2019-11-07 00:44:06 GMT 35.102005 -82.688210 26,675 225 413 -1024
2019-11-07 00:43:56 GMT 35.115471 -82.672295 26,825 225 415 -1024
2019-11-07 00:43:46 GMT 35.131622 -82.653282 27,050 225 415 -1024
2019-11-07 00:43:40 GMT 35.139259 -82.644310 27,125 225 416 -1088
2019-11-07 00:43:35 GMT 35.144485 -82.638092 27,200 225 416 -1024
2019-11-07 00:43:27 GMT 35.157486 -82.622292 27,350 226 415 -1024
2019-11-07 00:43:23 GMT 35.161926 -82.616798 27,425 226 415 -1024
2019-11-07 00:43:14 GMT 35.173187 -82.602898 27,550 226 416 -1024
2019-11-07 00:43:04 GMT 35.186558 -82.586456 27,725 226 417 -1024
2019-11-07 00:42:54 GMT 35.200195 -82.569633 27,900 226 418 -1088
2019-11-07 00:42:51 GMT 35.205547 -82.563057 27,900 226 418 -1088
2019-11-07 00:42:46 GMT 35.211273 -82.555977 28,050 226 420 -1024
2019-11-07 00:42:32 GMT 35.230453 -82.532272 28,325 226 422 -1088
2019-11-07 00:42:27 GMT 35.239067 -82.521645 28,425 226 423 -1088
2019-11-07 00:42:24 GMT 35.242931 -82.516853 28,450 226 423 -1088
2019-11-07 00:42:14 GMT 35.255035 -82.501831 28,600 226 424 -1088
2019-11-07 00:42:11 GMT 35.260014 -82.495697 28,625 226 425 -1088
2019-11-07 00:42:00 GMT 35.276123 -82.475769 28,875 226 427 -1088
2019-11-07 00:41:42 GMT 35.300262 -82.445808 29,175 226 426 -1024
2019-11-07 00:41:37 GMT 35.305847 -82.438889 29,250 226 424 -1024
2019-11-07 00:41:27 GMT 35.319672 -82.421722 29,425 226 424 -1088
2019-11-07 00:41:22 GMT 35.327362 -82.412109 29,500 226 425 -1152
2019-11-07 00:41:17 GMT 35.333614 -82.404358 29,600 226 426 -1152
2019-11-07 00:41:14 GMT 35.339153 -82.397522 29,800 226 431 -1024
2019-11-07 00:41:06 GMT 35.348698 -82.385597 29,800 226 434 -1024
2019-11-07 00:41:02 GMT 35.356796 -82.375603 29,900 226 432 -64
2019-11-07 00:40:53 GMT 35.367004 -82.362846 30,000 226 434 -832
2019-11-07 00:40:49 GMT 35.374329 -82.353630 30,000 226 432 -64
2019-11-07 00:40:40 GMT 35.386402 -82.338554 30,000 226 432 -64
2019-11-07 00:40:31 GMT 35.398956 -82.322731 30,000 227 432 0
2019-11-07 00:40:19 GMT 35.415546 -82.302147 30,000 225 432 64
2019-11-07 00:40:15 GMT 35.421021 -82.295609 30,000 225 432 64
2019-11-07 00:40:10 GMT 35.428207 -82.287071 30,000 225 432 0
2019-11-07 00:39:59 GMT 35.444092 -82.268257 30,000 225 432 64
2019-11-07 00:39:49 GMT 35.459015 -82.250572 30,000 225 430 -64
2019-11-07 00:39:37 GMT 35.474758 -82.231850 30,000 225 430 64
2019-11-07 00:39:28 GMT 35.488029 -82.216125 30,000 225 431 -64
2019-11-07 00:39:18 GMT 35.502972 -82.198418 30,000 225 432 -64
2019-11-07 00:39:07 GMT 35.518425 -82.180069 30,000 225 434 64
2019-11-07 00:38:57 GMT 35.533604 -82.162071 30,000 225 434 -64
2019-11-07 00:38:50 GMT 35.545441 -82.147980 30,000 225 434 64
2019-11-07 00:38:46 GMT 35.549469 -82.143173 30,000 225 434 0
2019-11-07 00:38:36 GMT 35.563583 -82.126366 30,000 225 434 0
2019-11-07 00:38:33 GMT 35.568657 -82.120346 30,000 225 434 0
2019-11-07 00:38:23 GMT 35.582016 -82.104393 30,000 225 433 0
2019-11-07 00:38:15 GMT 35.593563 -82.090721 30,000 225 433 0
2019-11-07 00:38:04 GMT 35.609390 -82.071815 30,000 225 432 0
2019-11-07 00:37:54 GMT 35.623764 -82.054710 30,000 225 432 -64
2019-11-07 00:37:43 GMT 35.638779 -82.036743 30,000 225 434 -64
2019-11-07 00:37:33 GMT 35.653793 -82.018829 30,000 225 434 64
2019-11-07 00:37:25 GMT 35.667023 -82.003036 30,000 225 433 -64
2019-11-07 00:37:22 GMT 35.669312 -82.000298 30,000 225 432 0
2019-11-07 00:37:12 GMT 35.683640 -81.983185 30,000 225 430 -64
2019-11-07 00:37:04 GMT 35.695587 -81.968880 30,000 225 429 0
2019-11-07 00:37:01 GMT 35.699329 -81.964439 30,000 225 429 0
2019-11-07 00:36:54 GMT 35.710968 -81.950516 30,000 225 429 64
2019-11-07 00:36:50 GMT 35.714691 -81.946083 30,000 225 428 64
2019-11-07 00:36:44 GMT 35.724747 -81.933990 30,000 225 427 64
2019-11-07 00:36:40 GMT 35.728794 -81.929199 30,000 225 427 64
2019-11-07 00:36:33 GMT 35.739349 -81.916527 30,000 225 427 64
2019-11-07 00:36:29 GMT 35.744762 -81.910088 30,000 225 427 0
2019-11-07 00:36:24 GMT 35.753887 -81.899216 30,000 225 427 -64
2019-11-07 00:36:19 GMT 35.758450 -81.893784 30,000 225 427 0
2019-11-07 00:36:12 GMT 35.769249 -81.880928 30,000 225 429 0
2019-11-07 00:36:09 GMT 35.774094 -81.875153 30,000 225 430 64
2019-11-07 00:36:03 GMT 35.783798 -81.863419 30,000 225 433 -64
2019-11-07 00:35:58 GMT 35.789223 -81.856850 30,000 225 434 64
2019-11-07 00:35:48 GMT 35.803978 -81.838676 30,000 225 434 -64
2019-11-07 00:35:40 GMT 35.815109 -81.825089 30,000 225 434 -64
2019-11-07 00:35:37 GMT 35.818317 -81.821144 30,000 225 435 0
2019-11-07 00:35:32 GMT 35.827789 -81.809525 30,000 225 436 64
2019-11-07 00:35:27 GMT 35.833511 -81.802544 30,000 225 438 -64
2019-11-07 00:35:21 GMT 35.842163 -81.791901 30,000 225 439 -64
2019-11-07 00:35:16 GMT 35.849075 -81.783371 30,000 226 438 -64
2019-11-07 00:35:10 GMT 35.859188 -81.771004 30,000 225 439 0
2019-11-07 00:35:06 GMT 35.863953 -81.765121 30,000 225 439 0
2019-11-07 00:35:01 GMT 35.872364 -81.754761 30,000 225 439 64
2019-11-07 00:34:55 GMT 35.879345 -81.746109 30,000 225 439 64
2019-11-07 00:34:49 GMT 35.888004 -81.735474 30,000 225 439 0
2019-11-07 00:34:44 GMT 35.894756 -81.727180 30,000 225 439 64
2019-11-07 00:34:40 GMT 35.902248 -81.717941 30,000 226 439 -64
2019-11-07 00:34:34 GMT 35.908951 -81.709671 30,000 226 439 -64
2019-11-07 00:34:29 GMT 35.916725 -81.700119 30,000 226 439 0
2019-11-07 00:34:24 GMT 35.932137 -81.681129 30,000 226 439 -128
2019-11-07 00:34:18 GMT 35.932137 -81.681129 30,000 226 439 0
2019-11-07 00:34:13 GMT 35.938889 -81.672821 30,000 226 439 -128
2019-11-07 00:34:09 GMT 35.947495 -81.662178 30,000 226 439 64
2019-11-07 00:34:03 GMT 35.954269 -81.653824 30,000 225 439 -64
2019-11-07 00:33:56 GMT 35.964157 -81.641640 30,000 225 439 0
2019-11-07 00:33:51 GMT 35.970634 -81.633675 30,000 226 438 -64
2019-11-07 00:33:47 GMT 35.977665 -81.625031 30,000 226 439 -64
2019-11-07 00:33:41 GMT 35.985577 -81.615211 30,000 226 439 64
2019-11-07 00:33:38 GMT 35.991398 -81.607964 30,000 226 439 64
2019-11-07 00:33:31 GMT 36.000320 -81.597008 30,000 226 437 0
2019-11-07 00:33:26 GMT 36.006546 -81.589279 30,000 226 439 64
2019-11-07 00:33:21 GMT 36.014442 -81.579506 30,000 226 437 0
2019-11-07 00:33:14 GMT 36.023804 -81.567940 30,000 226 438 0
2019-11-07 00:33:06 GMT 36.035843 -81.553062 30,000 226 437 0
2019-11-07 00:32:54 GMT 36.053101 -81.531654 30,000 226 438 -64
2019-11-07 00:32:49 GMT 36.059418 -81.523872 30,000 226 438 64
2019-11-07 00:32:46 GMT 36.065834 -81.515923 30,000 226 438 64
2019-11-07 00:32:34 GMT 36.081665 -81.496300 30,000 226 438 -64
2019-11-07 00:32:23 GMT 36.097183 -81.477074 30,000 226 438 0
2019-11-07 00:32:15 GMT 36.110321 -81.460762 30,000 226 437 0
2019-11-07 00:32:03 GMT 36.125607 -81.441765 30,000 226 438 64
2019-11-07 00:31:54 GMT 36.139618 -81.424370 30,000 226 438 -64
2019-11-07 00:31:46 GMT 36.150188 -81.411201 30,000 226 438 64
2019-11-07 00:31:43 GMT 36.155640 -81.404457 30,000 226 438 64
2019-11-07 00:31:31 GMT 36.171616 -81.384544 30,000 226 437 64
2019-11-07 00:31:22 GMT 36.185101 -81.367844 30,000 226 437 64
2019-11-07 00:31:14 GMT 36.195950 -81.354347 30,000 226 437 -64
2019-11-07 00:31:07 GMT 36.207260 -81.340202 30,000 226 437 0
2019-11-07 00:31:01 GMT 36.214195 -81.331551 30,000 226 437 64
2019-11-07 00:30:56 GMT 36.222111 -81.321739 30,000 226 438 -64
2019-11-07 00:30:52 GMT 36.228790 -81.313416 30,000 226 438 -64
2019-11-07 00:30:45 GMT 36.237946 -81.301918 30,000 226 439 64
2019-11-07 00:30:41 GMT 36.242825 -81.295845 30,000 226 438 0
2019-11-07 00:30:33 GMT 36.254425 -81.281380 30,000 226 438 -64
2019-11-07 00:30:30 GMT 36.258747 -81.275978 30,000 226 438 -64
2019-11-07 00:30:24 GMT 36.267105 -81.265579 30,000 226 437 0
2019-11-07 00:30:21 GMT 36.274250 -81.256638 30,000 226 437 64
2019-11-07 00:30:14 GMT 36.281094 -81.248100 30,000 226 437 0
2019-11-07 00:30:10 GMT 36.287064 -81.240639 30,000 226 437 -64
2019-11-07 00:30:05 GMT 36.295624 -81.229935 30,000 226 437 0
2019-11-07 00:30:01 GMT 36.299900 -81.224556 30,000 226 437 64
2019-11-07 00:29:54 GMT 36.310047 -81.211876 30,000 226 437 0
2019-11-07 00:29:50 GMT 36.315262 -81.205330 30,000 226 437 64
2019-11-07 00:29:40 GMT 36.329773 -81.187248 30,000 226 437 -64
2019-11-07 00:29:29 GMT 36.344868 -81.168396 30,000 226 437 -64
2019-11-07 00:29:18 GMT 36.360580 -81.148796 30,000 226 439 -64
2019-11-07 00:29:11 GMT 36.370613 -81.136253 30,000 226 438 -64
2019-11-07 00:29:08 GMT 36.374569 -81.131226 30,000 226 438 -64
2019-11-07 00:29:01 GMT 36.385464 -81.117615 30,000 226 439 64
2019-11-07 00:28:58 GMT 36.389374 -81.112701 30,000 226 439 -64
2019-11-07 00:28:53 GMT 36.398495 -81.101311 30,000 226 439 -64
2019-11-07 00:28:43 GMT 36.411160 -81.085411 30,000 226 439 -64
2019-11-07 00:28:37 GMT 36.419724 -81.074661 30,000 226 439 -64
2019-11-07 00:28:26 GMT 36.434738 -81.055817 30,000 226 439 64
2019-11-07 00:28:20 GMT 36.443985 -81.044250 30,000 226 439 -64
2019-11-07 00:28:15 GMT 36.450897 -81.035561 30,000 226 439 64
2019-11-07 00:28:11 GMT 36.457291 -81.027504 30,000 226 439 64
2019-11-07 00:28:05 GMT 36.465439 -81.017273 30,000 226 438 0
2019-11-07 00:28:00 GMT 36.472595 -81.008324 30,000 226 439 -128
2019-11-07 00:27:54 GMT 36.481155 -80.997559 30,000 226 438 0
2019-11-07 00:27:50 GMT 36.488434 -80.988403 30,000 226 438 64
2019-11-07 00:27:40 GMT 36.501114 -80.972504 30,000 226 438 0
2019-11-07 00:27:29 GMT 36.516495 -80.953217 30,000 226 437 -64
2019-11-07 00:27:24 GMT 36.525604 -80.941711 30,000 226 437 64
2019-11-07 00:27:21 GMT 36.529728 -80.936516 30,000 226 437 -64
2019-11-07 00:27:18 GMT 36.534073 -80.931015 30,000 226 437 0
2019-11-07 00:27:12 GMT 36.540802 -80.922546 30,000 226 436 64
2019-11-07 00:27:07 GMT 36.547977 -80.913544 30,000 226 436 0
2019-11-07 00:27:02 GMT 36.554771 -80.904961 30,000 226 436 64
2019-11-07 00:26:57 GMT 36.562222 -80.895607 30,000 226 436 0
2019-11-07 00:26:51 GMT 36.570553 -80.885086 30,000 226 435 0
2019-11-07 00:26:48 GMT 36.574265 -80.880432 30,000 226 435 64
2019-11-07 00:26:38 GMT 36.589096 -80.861717 30,000 226 435 -64
2019-11-07 00:26:26 GMT 36.606167 -80.840149 30,000 226 435 64
2019-11-07 00:26:19 GMT 36.615051 -80.828873 30,000 226 435 64
2019-11-07 00:26:15 GMT 36.622879 -80.818977 30,000 226 435 -64
2019-11-07 00:26:09 GMT 36.630295 -80.809593 30,000 226 434 0
2019-11-07 00:25:56 GMT 36.648331 -80.786758 30,000 226 434 64
2019-11-07 00:25:46 GMT 36.668610 -80.761124 30,000 226 434 -64
2019-11-07 00:25:42 GMT 36.668610 -80.761124 30,000 226 434 64
2019-11-07 00:25:37 GMT 36.676647 -80.750916 30,000 226 434 0
2019-11-07 00:25:32 GMT 36.682323 -80.743729 30,000 226 434 0
2019-11-07 00:25:25 GMT 36.691086 -80.732635 30,000 226 434 -64
2019-11-07 00:25:20 GMT 36.699005 -80.722672 30,000 226 433 0
2019-11-07 00:25:15 GMT 36.705975 -80.713867 30,000 226 432 64
2019-11-07 00:25:11 GMT 36.712772 -80.705215 30,000 226 433 -64
2019-11-07 00:24:59 GMT 36.728504 -80.685287 30,000 226 433 0
2019-11-07 00:24:47 GMT 36.745056 -80.664253 30,000 226 433 64
2019-11-07 00:24:41 GMT 36.753387 -80.653610 30,000 226 433 64
2019-11-07 00:24:37 GMT 36.759232 -80.646194 30,000 226 433 -64
2019-11-07 00:24:34 GMT 36.764908 -80.638947 30,000 226 433 -64
2019-11-07 00:24:26 GMT 36.775314 -80.625748 30,000 226 432 0
2019-11-07 00:24:22 GMT 36.780087 -80.619720 30,000 226 432 64
2019-11-07 00:24:16 GMT 36.788773 -80.608635 30,000 226 432 0
2019-11-07 00:24:05 GMT 36.803879 -80.589409 30,000 226 432 0
2019-11-07 00:23:56 GMT 36.817608 -80.571922 30,000 226 432 0
2019-11-07 00:23:52 GMT 36.822327 -80.565887 30,000 226 432 0
2019-11-07 00:23:44 GMT 36.832947 -80.552330 30,000 226 432 -64
2019-11-07 00:23:39 GMT 36.842094 -80.540710 30,000 226 432 0
2019-11-07 00:23:35 GMT 36.846817 -80.534706 30,000 226 432 64
2019-11-07 00:23:31 GMT 36.855881 -80.523186 30,000 226 432 64
2019-11-07 00:23:22 GMT 36.863274 -80.513725 30,000 226 432 -64
2019-11-07 00:23:19 GMT 36.867599 -80.508224 30,000 226 431 0
2019-11-07 00:23:15 GMT 36.875053 -80.498734 30,000 226 431 64
2019-11-07 00:23:11 GMT 36.878498 -80.494316 30,000 226 431 0
2019-11-07 00:23:02 GMT 36.891586 -80.477600 30,000 226 431 0
2019-11-07 00:22:57 GMT 36.898865 -80.468307 30,000 226 432 0
2019-11-07 00:22:52 GMT 36.913330 -80.449898 30,000 226 432 0
2019-11-07 00:22:41 GMT 36.921204 -80.439789 30,000 227 432 0
2019-11-07 00:22:34 GMT 36.931320 -80.426933 30,000 226 432 -64
2019-11-07 00:22:30 GMT 36.936905 -80.419807 30,000 226 432 64
2019-11-07 00:22:24 GMT 36.946091 -80.408043 30,000 226 432 64
2019-11-07 00:22:20 GMT 36.950912 -80.401863 30,000 226 433 -64
2019-11-07 00:22:12 GMT 36.962894 -80.386665 30,000 226 433 0
2019-11-07 00:22:08 GMT 36.967758 -80.380478 30,000 226 432 64
2019-11-07 00:22:03 GMT 36.975632 -80.370422 30,000 226 433 64
2019-11-07 00:21:58 GMT 36.982681 -80.361526 30,000 226 433 64
2019-11-07 00:21:50 GMT 36.993202 -80.348152 30,000 226 433 0
2019-11-07 00:21:47 GMT 36.997158 -80.343140 30,000 226 432 0
2019-11-07 00:21:41 GMT 37.006485 -80.331093 30,000 227 432 0
2019-11-07 00:21:38 GMT 37.010567 -80.325645 30,000 228 431 0
2019-11-07 00:21:32 GMT 37.019272 -80.313995 30,000 228 430 0
2019-11-07 00:21:28 GMT 37.023331 -80.308540 30,000 228 430 0
2019-11-07 00:21:21 GMT 37.032440 -80.296265 30,000 228 430 64
2019-11-07 00:21:18 GMT 37.036926 -80.290245 30,000 228 430 0
2019-11-07 00:21:12 GMT 37.044781 -80.279671 30,000 228 430 0
2019-11-07 00:21:08 GMT 37.051437 -80.270668 30,000 228 429 0
2019-11-07 00:21:05 GMT 37.054184 -80.266991 30,000 228 429 0
2019-11-07 00:21:01 GMT 37.060730 -80.258163 30,000 228 429 0
2019-11-07 00:20:56 GMT 37.067734 -80.248695 30,000 228 428 0
2019-11-07 00:20:49 GMT 37.076935 -80.236313 30,000 228 429 0
2019-11-07 00:20:45 GMT 37.080395 -80.231606 30,000 228 428 0
2019-11-07 00:20:38 GMT 37.090942 -80.217377 30,000 228 429 0
2019-11-07 00:20:35 GMT 37.096344 -80.210129 30,000 228 429 0
2019-11-07 00:20:28 GMT 37.105251 -80.198105 30,000 228 429 0
2019-11-07 00:20:25 GMT 37.118706 -80.179955 30,000 228 429 64
2019-11-07 00:20:17 GMT 37.118706 -80.179955 30,000 228 429 -64
2019-11-07 00:20:14 GMT 37.123306 -80.173660 30,000 228 429 64
2019-11-07 00:20:06 GMT 37.133324 -80.160194 30,000 228 429 0
2019-11-07 00:20:03 GMT 37.137360 -80.154732 30,000 228 429 0
2019-11-07 00:19:57 GMT 37.146824 -80.141922 30,000 228 430 -64
2019-11-07 00:19:52 GMT 37.152691 -80.134041 30,000 228 429 64
2019-11-07 00:19:47 GMT 37.158649 -80.125977 30,000 228 430 -128
2019-11-07 00:19:44 GMT 37.164276 -80.118324 30,000 228 430 64
2019-11-07 00:19:35 GMT 37.176315 -80.102081 30,000 228 429 0
2019-11-07 00:19:32 GMT 37.179783 -80.097321 30,000 228 429 0
2019-11-07 00:19:25 GMT 37.193024 -80.079460 30,000 228 429 0
2019-11-07 00:19:22 GMT 37.193024 -80.079460 30,000 228 429 0
2019-11-07 00:19:14 GMT 37.204330 -80.064095 30,000 228 429 64
2019-11-07 00:19:11 GMT 37.207294 -80.060059 30,000 228 428 -64
2019-11-07 00:19:04 GMT 37.218048 -80.045494 30,000 228 428 0
2019-11-07 00:19:01 GMT 37.220703 -80.041847 30,000 228 428 0
2019-11-07 00:18:51 GMT 37.235737 -80.021431 30,000 228 428 -64
2019-11-07 00:18:45 GMT 37.258575 -79.990463 30,000 228 428 0
2019-11-07 00:18:34 GMT 37.258575 -79.990463 30,000 228 428 -64
2019-11-07 00:18:24 GMT 37.270386 -79.974388 30,000 228 428 0
2019-11-07 00:18:09 GMT 37.292671 -79.944046 30,000 228 431 -64
2019-11-07 00:18:03 GMT 37.299145 -79.935272 30,000 228 430 0
2019-11-07 00:17:53 GMT 37.326187 -79.898491 30,000 228 431 -64
2019-11-07 00:17:44 GMT 37.326187 -79.898491 30,000 228 431 -64
2019-11-07 00:17:32 GMT 37.341019 -79.878258 30,000 228 432 -64
2019-11-07 00:17:23 GMT 37.354820 -79.859444 30,000 228 431 64
2019-11-07 00:16:50 GMT 37.399181 -79.798897 30,000 228 431 -64
2019-11-07 00:16:40 GMT 37.411331 -79.782249 30,000 228 431 64
2019-11-07 00:16:18 GMT 37.440994 -79.741692 30,000 228 431 64
2019-11-07 00:16:08 GMT 37.454300 -79.723480 30,000 228 432 -64
2019-11-07 00:16:00 GMT 37.466732 -79.706406 30,000 228 432 64
2019-11-07 00:15:19 GMT 37.521290 -79.631592 30,000 228 433 0
2019-11-07 00:15:16 GMT 37.524548 -79.627113 30,000 228 433 0
2019-11-07 00:15:08 GMT 37.535351 -79.612251 30,000 228 433 64
2019-11-07 00:14:57 GMT 37.549828 -79.592308 30,000 228 433 0
2019-11-07 00:14:46 GMT 37.578186 -79.553291 30,000 228 433 0
2019-11-07 00:14:36 GMT 37.578186 -79.553291 30,000 228 434 64
2019-11-07 00:14:26 GMT 37.591873 -79.534409 30,000 228 433 0
2019-11-07 00:14:10 GMT 37.613277 -79.504951 30,000 228 434 64
2019-11-07 00:14:01 GMT 37.625751 -79.487755 30,000 228 430 0
2019-11-07 00:13:54 GMT 37.635773 -79.473930 30,000 228 434 0
2019-11-07 00:13:44 GMT 37.649185 -79.455460 30,000 228 433 0
2019-11-07 00:13:34 GMT 37.662949 -79.436348 30,000 228 433 0
2019-11-07 00:13:21 GMT 37.679581 -79.413383 30,000 228 433 0
2019-11-07 00:13:12 GMT 37.692184 -79.395927 30,000 228 433 -64
2019-11-07 00:13:06 GMT 37.701736 -79.382767 30,000 228 432 0
2019-11-07 00:12:36 GMT 37.742157 -79.326721 30,000 228 429 0
2019-11-07 00:12:20 GMT 37.762569 -79.298363 30,000 228 428 0
2019-11-07 00:12:09 GMT 37.776260 -79.279388 30,000 228 428 64
2019-11-07 00:11:59 GMT 37.790176 -79.260101 30,000 228 428 0
2019-11-07 00:11:48 GMT 37.804001 -79.240822 30,000 228 428 0
2019-11-07 00:11:39 GMT 37.820808 -79.217514 30,000 228 428 -64
2019-11-07 00:11:36 GMT 37.820808 -79.217514 30,000 228 428 -64
2019-11-07 00:11:31 GMT 37.828537 -79.206749 30,000 228 428 64
2019-11-07 00:11:28 GMT 37.831467 -79.202705 30,000 228 428 0
2019-11-07 00:11:15 GMT 37.848770 -79.178642 30,000 228 428 0
2019-11-07 00:11:10 GMT 37.855350 -79.169510 30,000 228 427 0
2019-11-07 00:11:07 GMT 37.860443 -79.162514 30,000 228 427 -64
2019-11-07 00:10:53 GMT 37.881683 -79.132713 30,000 229 426 0
2019-11-07 00:10:50 GMT 37.881683 -79.132713 30,000 229 426 0
2019-11-07 00:10:47 GMT 37.886494 -79.125801 30,000 230 426 64
2019-11-07 00:10:40 GMT 37.894173 -79.114403 30,000 230 426 0
2019-11-07 00:10:31 GMT 37.907181 -79.094666 30,000 232 425 0
2019-11-07 00:10:24 GMT 37.914551 -79.083038 30,000 233 426 64
2019-11-07 00:10:16 GMT 37.924480 -79.066933 30,000 233 425 64
2019-11-07 00:09:59 GMT 37.948196 -79.027870 30,000 233 425 0
2019-11-07 00:09:38 GMT 37.969913 -78.992058 30,000 233 422 64
2019-11-07 00:09:27 GMT 37.984390 -78.968231 30,000 233 424 0
2019-11-07 00:09:08 GMT 38.005554 -78.933258 30,000 233 423 0
2019-11-07 00:09:04 GMT 38.010361 -78.925316 30,000 233 424 0
2019-11-07 00:08:54 GMT 38.023029 -78.904343 30,000 233 423 0
2019-11-07 00:07:56 GMT 38.091339 -78.791138 30,000 233 422 -64
2019-11-07 00:07:53 GMT 38.095963 -78.783424 30,000 233 422 -64
2019-11-07 00:07:45 GMT 38.104359 -78.769524 30,000 233 421 64
2019-11-07 00:07:39 GMT 38.111431 -78.757759 30,000 233 421 0
2019-11-07 00:07:32 GMT 38.119858 -78.743790 30,000 233 421 -64
2019-11-07 00:07:24 GMT 38.130241 -78.726479 30,000 233 421 0
2019-11-07 00:07:19 GMT 38.136154 -78.716629 30,000 233 421 0
2019-11-07 00:07:09 GMT 38.146393 -78.699608 30,000 233 421 0
2019-11-07 00:07:01 GMT 38.157486 -78.681099 30,000 233 421 64
2019-11-07 00:06:53 GMT 38.165760 -78.667366 30,000 233 421 0
2019-11-07 00:06:49 GMT 38.170715 -78.659126 30,000 233 421 0
2019-11-07 00:06:41 GMT 38.190536 -78.626053 30,000 233 421 0
2019-11-07 00:06:32 GMT 38.190536 -78.626053 30,000 233 420 0
2019-11-07 00:06:29 GMT 38.194061 -78.620193 30,000 233 420 0
2019-11-07 00:06:21 GMT 38.203262 -78.604782 30,000 233 420 0
2019-11-07 00:06:17 GMT 38.214779 -78.585564 30,000 233 420 0
2019-11-07 00:06:12 GMT 38.214779 -78.585564 30,000 233 420 0
2019-11-07 00:06:04 GMT 38.223404 -78.571121 30,000 233 420 0
2019-11-07 00:06:01 GMT 38.226929 -78.565262 30,000 233 419 0
2019-11-07 00:05:56 GMT 38.232880 -78.555344 30,000 233 419 0
2019-11-07 00:05:53 GMT 38.237263 -78.547951 30,000 233 419 0
2019-11-07 00:05:49 GMT 38.242012 -78.540070 30,000 233 419 0
2019-11-07 00:05:45 GMT 38.245781 -78.533798 30,000 233 419 64
2019-11-07 00:05:41 GMT 38.251694 -78.523903 30,000 233 419 -64
2019-11-07 00:05:37 GMT 38.258492 -78.512543 30,000 233 419 64
2019-11-07 00:05:34 GMT 38.258492 -78.512543 30,000 233 419 0
2019-11-07 00:05:31 GMT 38.262039 -78.506607 30,000 233 419 0
2019-11-07 00:05:28 GMT 38.266708 -78.498772 30,000 233 419 0
2019-11-07 00:05:25 GMT 38.270004 -78.493340 30,000 233 419 0
2019-11-07 00:05:19 GMT 38.276093 -78.483116 30,000 233 419 0
2019-11-07 00:05:15 GMT 38.281906 -78.473312 30,000 233 418 0
2019-11-07 00:05:08 GMT 38.290241 -78.459343 30,000 233 418 0
2019-11-07 00:05:04 GMT 38.293964 -78.453133 30,000 233 418 0
2019-11-07 00:04:59 GMT 38.305481 -78.433853 30,000 233 417 0
2019-11-07 00:04:55 GMT 38.305481 -78.433853 30,000 233 417 0
2019-11-07 00:04:48 GMT 38.312305 -78.422379 30,000 233 417 0
2019-11-07 00:04:45 GMT 38.316742 -78.414917 30,000 233 419 64
2019-11-07 00:04:39 GMT 38.324203 -78.402412 30,000 233 420 64
2019-11-07 00:04:34 GMT 38.328918 -78.394463 30,000 233 421 0
2019-11-07 00:04:31 GMT 38.331905 -78.389481 30,000 233 423 0
2019-11-07 00:04:28 GMT 38.335770 -78.382973 30,000 233 423 0
2019-11-07 00:04:24 GMT 38.341141 -78.373955 30,000 233 423 0
2019-11-07 00:04:19 GMT 38.346615 -78.364761 30,000 233 423 0
2019-11-07 00:04:13 GMT 38.354111 -78.352104 30,000 234 422 0
2019-11-07 00:04:09 GMT 38.359322 -78.343330 30,000 233 423 0
2019-11-07 00:04:04 GMT 38.364910 -78.333893 30,000 233 423 64
2019-11-07 00:04:01 GMT 38.367889 -78.328934 30,000 233 423 64
2019-11-07 00:03:57 GMT 38.371811 -78.322350 30,000 234 422 0
2019-11-07 00:03:53 GMT 38.378223 -78.311440 30,000 234 422 0
2019-11-07 00:03:50 GMT 38.381287 -78.306282 30,000 234 422 0
2019-11-07 00:03:46 GMT 38.385300 -78.299500 30,000 234 422 -64
2019-11-07 00:03:41 GMT 38.391445 -78.289169 30,000 234 422 -64
2019-11-07 00:03:37 GMT 38.404152 -78.267677 30,000 234 422 0
2019-11-07 00:03:30 GMT 38.404152 -78.267677 30,000 234 422 0
2019-11-07 00:03:26 GMT 38.408901 -78.259735 30,000 234 422 0
2019-11-07 00:03:21 GMT 38.414536 -78.250183 30,000 234 422 -64
2019-11-07 00:03:18 GMT 38.418457 -78.243614 30,000 234 422 -64
2019-11-07 00:03:15 GMT 38.421844 -78.237885 30,000 234 422 0
2019-11-07 00:03:12 GMT 38.426514 -78.229942 30,000 234 422 0
2019-11-07 00:03:09 GMT 38.428894 -78.225998 30,000 234 422 0
2019-11-07 00:03:06 GMT 38.433517 -78.218117 30,000 234 422 0
2019-11-07 00:03:01 GMT 38.439442 -78.208130 30,000 233 422 64
2019-11-07 00:02:58 GMT 38.441349 -78.204956 30,000 234 422 64
2019-11-07 00:02:55 GMT 38.451828 -78.187248 30,000 234 422 0
2019-11-07 00:02:50 GMT 38.451828 -78.187248 30,000 233 422 -64
2019-11-07 00:02:45 GMT 38.461304 -78.171188 30,000 234 422 0
2019-11-07 00:02:42 GMT 38.464096 -78.166412 30,000 233 422 64
2019-11-07 00:02:39 GMT 38.464096 -78.166412 30,000 233 422 64
2019-11-07 00:02:35 GMT 38.469772 -78.156860 30,000 233 422 0
2019-11-07 00:02:28 GMT 38.478149 -78.142708 30,000 234 422 -64
2019-11-07 00:02:24 GMT 38.482735 -78.134949 30,000 234 422 -64
2019-11-07 00:02:17 GMT 38.494675 -78.114761 30,000 234 422 64
2019-11-07 00:02:13 GMT 38.494675 -78.114761 30,000 234 421 0
2019-11-07 00:02:10 GMT 38.499435 -78.106644 30,000 234 422 0
2019-11-07 00:02:06 GMT 38.502182 -78.101929 30,000 234 422 0
2019-11-07 00:02:02 GMT 38.507401 -78.093086 30,000 234 422 0
2019-11-07 00:01:59 GMT 38.511875 -78.085510 30,000 234 422 64
2019-11-07 00:01:55 GMT 38.519119 -78.073204 30,000 234 421 0
2019-11-07 00:01:52 GMT 38.523834 -78.065208 30,000 234 421 0
2019-11-07 00:01:48 GMT 38.523834 -78.065208 30,000 234 421 64
2019-11-07 00:01:43 GMT 38.529831 -78.055054 30,000 234 421 64
2019-11-07 00:01:40 GMT 38.533218 -78.049324 30,000 234 421 64
2019-11-07 00:01:37 GMT 38.540504 -78.036926 30,000 234 421 64
2019-11-07 00:01:34 GMT 38.540504 -78.036926 30,000 219 427 0
2019-11-07 00:01:31 GMT 38.543060 -78.032547 30,000 234 421 64
2019-11-07 00:01:28 GMT 38.547272 -78.025383 30,000 234 421 0
2019-11-07 00:01:25 GMT 38.551987 -78.017441 30,000 234 421 -64
2019-11-07 00:01:22 GMT 38.554981 -78.012329 30,000 234 421 64
2019-11-07 00:01:18 GMT 38.559036 -78.005501 30,000 234 421 64
2019-11-07 00:01:15 GMT 38.567181 -77.991577 30,000 234 421 64
2019-11-07 00:01:11 GMT 38.567181 -77.991577 30,000 234 421 64
2019-11-07 00:01:08 GMT 38.571415 -77.984436 30,000 234 421 0
2019-11-07 00:01:04 GMT 38.575333 -77.977730 30,000 234 421 0
2019-11-07 00:01:01 GMT 38.578674 -77.972122 30,000 234 420 0
2019-11-07 00:00:58 GMT 38.583099 -77.964600 30,000 234 420 64
2019-11-07 00:00:55 GMT 38.590504 -77.952087 30,000 234 420 0
2019-11-07 00:00:52 GMT 38.594101 -77.945969 30,000 234 420 0
2019-11-07 00:00:49 GMT 38.594101 -77.945969 30,000 234 420 0
2019-11-07 00:00:44 GMT 38.603165 -77.930603 30,000 234 421 0
2019-11-07 00:00:40 GMT 38.603165 -77.930603 30,000 234 421 -64
2019-11-07 00:00:37 GMT 38.607864 -77.922485 30,000 234 421 -64
2019-11-07 00:00:34 GMT 38.610443 -77.918083 30,000 234 421 0
2019-11-07 00:00:30 GMT 38.615570 -77.909248 30,000 233 421 0
2019-11-07 00:00:27 GMT 38.619873 -77.902084 30,000 232 422 0
2019-11-07 00:00:24 GMT 38.624725 -77.894318 30,000 231 422 0
2019-11-07 00:00:19 GMT 38.629513 -77.887024 30,000 229 422 0
2019-11-07 00:00:14 GMT 38.635986 -77.877602 30,000 226 423 -64
2019-11-07 00:00:11 GMT 38.638641 -77.873901 30,000 228 423 0
2019-11-07 00:00:08 GMT 38.642639 -77.868408 30,000 227 423 -64
2019-11-07 00:00:05 GMT 38.648438 -77.860825 30,000 224 425 0
2019-11-07 00:00:01 GMT 38.653812 -77.854126 30,000 223 425 64
2019-11-06 23:59:58 GMT 38.656700 -77.850647 30,000 223 425 64
2019-11-06 23:59:54 GMT 38.662399 -77.844162 30,000 222 425 0
2019-11-06 23:59:51 GMT 38.667206 -77.838974 30,000 220 427 -64
2019-11-06 23:59:48 GMT 38.671417 -77.834549 30,000 219 427 0
2019-11-06 23:59:44 GMT 38.683228 -77.822433 30,000 219 427 64
2019-11-06 23:59:41 GMT 38.686981 -77.818611 30,000 219 427 0
2019-11-06 23:59:35 GMT 38.691971 -77.813538 30,000 219 427 0
2019-11-06 23:59:32 GMT 38.696503 -77.808838 30,000 219 427 0
2019-11-06 23:59:29 GMT 38.706371 -77.798706 30,000 219 427 0
2019-11-06 23:59:26 GMT 38.706371 -77.798706 30,000 219 427 0
2019-11-06 23:59:23 GMT 38.714813 -77.790070 30,000 219 427 0
2019-11-06 23:59:17 GMT 38.720856 -77.783859 30,000 219 427 64
2019-11-06 23:59:14 GMT 38.724518 -77.780098 30,000 219 426 -64
2019-11-06 23:59:09 GMT 38.733398 -77.770966 30,000 219 426 -64
2019-11-06 23:59:06 GMT 38.736511 -77.767799 30,000 219 426 -64
2019-11-06 23:59:02 GMT 38.742599 -77.761589 30,000 219 426 64
2019-11-06 23:58:59 GMT 38.748592 -77.755432 30,000 219 426 64
2019-11-06 23:58:56 GMT 38.753220 -77.750664 30,000 219 426 -64
2019-11-06 23:58:53 GMT 38.755692 -77.748093 30,000 219 426 -64
2019-11-06 23:58:50 GMT 38.760975 -77.742676 30,000 219 426 64
2019-11-06 23:58:47 GMT 38.765625 -77.737885 30,000 219 426 64
2019-11-06 23:58:44 GMT 38.771210 -77.732155 30,000 219 426 0
2019-11-06 23:58:38 GMT 38.780807 -77.722290 30,000 219 426 0
2019-11-06 23:58:34 GMT 38.784760 -77.718239 30,000 219 426 -64
2019-11-06 23:58:31 GMT 38.789246 -77.713646 30,000 219 426 -64
2019-11-06 23:58:28 GMT 38.796021 -77.706657 30,000 219 426 0
2019-11-06 23:58:25 GMT 38.799133 -77.703491 30,000 219 426 0
2019-11-06 23:58:22 GMT 38.803986 -77.698540 30,000 219 426 0
2019-11-06 23:58:19 GMT 38.808598 -77.693787 30,000 219 426 0
2019-11-06 23:58:15 GMT 38.815659 -77.686478 30,000 219 426 0
2019-11-06 23:58:12 GMT 38.819504 -77.682533 30,000 219 425 0
2019-11-06 23:58:09 GMT 38.824196 -77.677734 30,000 219 425 0
2019-11-06 23:58:05 GMT 38.830078 -77.671669 30,000 219 425 0
2019-11-06 23:58:02 GMT 38.835663 -77.665878 30,000 219 425 64
2019-11-06 23:57:59 GMT 38.839966 -77.661461 30,000 219 425 0
2019-11-06 23:57:56 GMT 38.843838 -77.657471 30,000 219 425 64
2019-11-06 23:57:51 GMT 38.851940 -77.649109 30,000 219 425 0
2019-11-06 23:57:48 GMT 38.856968 -77.643921 30,000 219 423 64
2019-11-06 23:57:45 GMT 38.860737 -77.640015 30,000 219 423 64
2019-11-06 23:57:41 GMT 38.867249 -77.633331 30,000 219 423 0
2019-11-06 23:57:36 GMT 38.875542 -77.624756 30,000 219 423 0
2019-11-06 23:57:31 GMT 38.882942 -77.617126 30,000 219 423 0
2019-11-06 23:57:28 GMT 38.888306 -77.611603 30,000 219 423 0
2019-11-06 23:57:25 GMT 38.891090 -77.608765 30,000 219 423 -64
2019-11-06 23:57:21 GMT 38.897236 -77.602417 30,000 219 423 64
2019-11-06 23:57:18 GMT 38.902496 -77.596970 30,000 219 423 64
2019-11-06 23:57:15 GMT 38.906158 -77.593155 30,000 219 422 0
2019-11-06 23:57:12 GMT 38.912037 -77.587097 30,000 219 421 64
2019-11-06 23:57:08 GMT 38.916832 -77.582153 30,000 219 423 -64
2019-11-06 23:57:05 GMT 38.921585 -77.577271 30,000 219 423 -64
2019-11-06 23:57:01 GMT 38.933544 -77.564880 30,000 219 423 0
2019-11-06 23:56:58 GMT 38.933544 -77.564880 30,000 219 423 64
2019-11-06 23:56:54 GMT 38.939690 -77.558533 30,000 219 423 0
2019-11-06 23:56:50 GMT 38.948956 -77.548950 30,000 219 422 0
2019-11-06 23:56:47 GMT 38.948956 -77.548950 30,000 219 422 0
2019-11-06 23:56:43 GMT 38.955147 -77.542603 30,000 219 422 0
2019-11-06 23:56:40 GMT 38.967087 -77.530220 30,000 219 421 -64
2019-11-06 23:56:36 GMT 38.967087 -77.530220 30,000 219 422 0
2019-11-06 23:56:33 GMT 38.970016 -77.527176 30,000 219 421 -64
2019-11-06 23:56:30 GMT 38.976604 -77.520386 30,000 219 421 -64
2019-11-06 23:56:27 GMT 38.979027 -77.517822 30,000 219 421 64
2019-11-06 23:56:23 GMT 38.987034 -77.509583 30,000 219 421 0
2019-11-06 23:56:19 GMT 38.992355 -77.504066 30,000 219 421 0
2019-11-06 23:56:15 GMT 38.997803 -77.498451 30,000 219 421 0
2019-11-06 23:56:12 GMT 39.002350 -77.493713 30,000 219 421 0
2019-11-06 23:56:09 GMT 39.006771 -77.489075 30,000 219 421 0
2019-11-06 23:56:05 GMT 39.014511 -77.481079 30,000 219 421 0
2019-11-06 23:56:02 GMT 39.018501 -77.476990 30,000 219 421 0
2019-11-06 23:55:58 GMT 39.029537 -77.465515 30,000 220 420 64
2019-11-06 23:55:54 GMT 39.029537 -77.465515 30,000 220 420 0
2019-11-06 23:55:51 GMT 39.034103 -77.460777 30,000 220 420 0
2019-11-06 23:55:48 GMT 39.039356 -77.455322 30,000 220 420 0
2019-11-06 23:55:43 GMT 39.045135 -77.449310 30,000 220 420 0
2019-11-06 23:55:40 GMT 39.049831 -77.444458 30,000 220 420 -64
2019-11-06 23:55:37 GMT 39.056492 -77.437561 30,000 220 420 -64
2019-11-06 23:55:34 GMT 39.061157 -77.432655 30,000 220 420 0
2019-11-06 23:55:31 GMT 39.065460 -77.428238 30,000 220 420 0
2019-11-06 23:55:27 GMT 39.069431 -77.424072 30,000 220 420 0
2019-11-06 23:55:24 GMT 39.074970 -77.418335 30,000 220 420 0
2019-11-06 23:55:21 GMT 39.080795 -77.412231 30,000 220 420 0
2019-11-06 23:55:18 GMT 39.085354 -77.407532 30,000 220 420 0
2019-11-06 23:55:15 GMT 39.088238 -77.404541 30,000 220 420 0
2019-11-06 23:55:12 GMT 39.092709 -77.399902 30,000 220 420 0
2019-11-06 23:55:09 GMT 39.097641 -77.394775 30,000 220 420 0
2019-11-06 23:55:06 GMT 39.101624 -77.390617 30,000 220 420 -64
2019-11-06 23:55:02 GMT 39.108070 -77.383911 30,000 220 420 64
2019-11-06 23:54:57 GMT 39.115379 -77.376282 30,000 220 420 0
2019-11-06 23:54:54 GMT 39.121262 -77.370201 30,000 220 420 0
2019-11-06 23:54:51 GMT 39.124969 -77.366379 30,000 220 420 0
2019-11-06 23:54:48 GMT 39.129730 -77.361427 30,000 220 420 0
2019-11-06 23:54:45 GMT 39.134079 -77.356827 30,000 220 420 0
2019-11-06 23:54:42 GMT 39.140423 -77.350281 30,000 220 420 0
2019-11-06 23:54:37 GMT 39.145706 -77.344765 30,000 220 421 0
2019-11-06 23:54:34 GMT 39.150803 -77.339478 30,000 220 420 0
2019-11-06 23:54:30 GMT 39.156784 -77.333244 30,000 220 421 0
2019-11-06 23:54:27 GMT 39.160625 -77.329163 30,000 220 421 64
2019-11-06 23:54:24 GMT 39.165653 -77.323975 30,000 220 421 64
2019-11-06 23:54:20 GMT 39.171055 -77.318298 30,000 220 421 0
2019-11-06 23:54:16 GMT 39.178070 -77.310966 30,000 220 421 0
2019-11-06 23:54:13 GMT 39.182510 -77.306374 30,000 220 421 0
2019-11-06 23:54:10 GMT 39.191620 -77.296883 30,000 220 421 0
2019-11-06 23:54:07 GMT 39.191620 -77.296883 30,000 220 421 64
2019-11-06 23:54:04 GMT 39.197067 -77.291145 30,000 220 421 0
2019-11-06 23:54:01 GMT 39.200821 -77.287270 30,000 220 421 64
2019-11-06 23:53:56 GMT 39.208435 -77.279297 30,000 220 421 0
2019-11-06 23:53:53 GMT 39.213043 -77.274490 30,000 220 421 64
2019-11-06 23:53:50 GMT 39.218212 -77.269104 30,000 220 421 64
2019-11-06 23:53:46 GMT 39.224121 -77.262901 30,000 220 421 0
2019-11-06 23:53:43 GMT 39.229198 -77.257568 30,000 220 421 -64
2019-11-06 23:53:40 GMT 39.236984 -77.249474 30,000 220 421 0
2019-11-06 23:53:34 GMT 39.242615 -77.243561 30,000 220 421 -64
2019-11-06 23:53:30 GMT 39.247513 -77.238426 30,000 220 421 -64
2019-11-06 23:53:26 GMT 39.253555 -77.232094 30,000 220 422 0
2019-11-06 23:53:23 GMT 39.259457 -77.225952 30,000 220 422 0
2019-11-06 23:53:19 GMT 39.265274 -77.219856 30,000 220 422 0
2019-11-06 23:53:15 GMT 39.270767 -77.214127 30,000 220 422 0
2019-11-06 23:53:12 GMT 39.274933 -77.209763 30,000 220 422 0
2019-11-06 23:53:07 GMT 39.282394 -77.201942 30,000 220 422 0
2019-11-06 23:53:04 GMT 39.287621 -77.196472 30,000 220 422 -64
2019-11-06 23:53:00 GMT 39.298702 -77.184875 30,000 220 422 64
2019-11-06 23:52:57 GMT 39.300842 -77.182594 30,000 220 422 64
2019-11-06 23:52:51 GMT 39.306011 -77.177124 30,000 220 422 0
2019-11-06 23:52:47 GMT 39.312805 -77.170044 30,000 220 422 64
2019-11-06 23:52:44 GMT 39.318344 -77.164246 30,000 220 422 0
2019-11-06 23:52:41 GMT 39.322906 -77.159431 30,000 220 422 64
2019-11-06 23:52:38 GMT 39.326168 -77.156067 30,000 220 422 -64
2019-11-06 23:52:34 GMT 39.332657 -77.149223 30,000 220 422 -64
2019-11-06 23:52:31 GMT 39.335526 -77.146240 30,000 220 422 64
2019-11-06 23:52:26 GMT 39.346161 -77.135010 30,000 220 422 64
2019-11-06 23:52:22 GMT 39.351151 -77.129814 30,000 220 420 0
2019-11-06 23:52:19 GMT 39.355030 -77.125732 30,000 220 421 -64
2019-11-06 23:52:15 GMT 39.360855 -77.119606 30,000 220 421 64
2019-11-06 23:52:12 GMT 39.366806 -77.113342 30,000 220 421 64
2019-11-06 23:52:09 GMT 39.377190 -77.102478 30,000 220 421 -64
2019-11-06 23:52:04 GMT 39.377190 -77.102478 30,000 220 421 -64
2019-11-06 23:52:01 GMT 39.382370 -77.097038 30,000 220 421 -64
2019-11-06 23:51:55 GMT 39.391804 -77.087097 30,000 220 421 0
2019-11-06 23:51:52 GMT 39.397064 -77.081635 30,000 220 420 0
2019-11-06 23:51:49 GMT 39.407726 -77.070374 30,000 220 421 0
2019-11-06 23:51:45 GMT 39.407726 -77.070374 30,000 220 421 0
2019-11-06 23:51:41 GMT 39.413219 -77.064575 30,000 220 421 0
2019-11-06 23:51:38 GMT 39.416897 -77.060730 30,000 220 421 64
2019-11-06 23:51:35 GMT 39.421509 -77.055893 30,000 220 421 0
2019-11-06 23:51:32 GMT 39.424858 -77.052307 30,000 220 420 -64
2019-11-06 23:51:28 GMT 39.430908 -77.045898 30,000 220 420 -64
2019-11-06 23:51:24 GMT 39.438446 -77.037926 30,000 220 420 64
2019-11-06 23:51:20 GMT 39.444363 -77.031677 30,000 220 420 -64
2019-11-06 23:51:12 GMT 39.455257 -77.020264 30,000 220 420 -64
2019-11-06 23:51:09 GMT 39.460236 -77.014954 30,000 220 419 -64
2019-11-06 23:51:04 GMT 39.469826 -77.004578 30,000 222 418 0
2019-11-06 23:51:00 GMT 39.477928 -76.995117 30,000 224 418 0
2019-11-06 23:50:53 GMT 39.484360 -76.987114 30,000 226 417 0
2019-11-06 23:50:50 GMT 39.487888 -76.982483 30,000 227 416 -64
2019-11-06 23:50:47 GMT 39.493149 -76.975281 30,000 227 416 -64
2019-11-06 23:50:44 GMT 39.497086 -76.969681 30,000 229 415 -64
2019-11-06 23:50:40 GMT 39.501900 -76.962524 30,000 231 414 64
2019-11-06 23:50:37 GMT 39.504368 -76.958557 30,000 233 414 64
2019-11-06 23:50:33 GMT 39.509811 -76.949493 30,000 235 412 0
2019-11-06 23:50:29 GMT 39.513840 -76.942268 30,000 236 412 -64
2019-11-06 23:50:26 GMT 39.516861 -76.936539 30,000 236 412 0
2019-11-06 23:50:20 GMT 39.523129 -76.924622 30,000 236 412 0
2019-11-06 23:50:17 GMT 39.526382 -76.918388 30,000 236 412 0
2019-11-06 23:50:14 GMT 39.532627 -76.906494 30,000 236 412 0
2019-11-06 23:50:11 GMT 39.532627 -76.906494 30,000 236 412 0
2019-11-06 23:50:08 GMT 39.536728 -76.898628 30,000 236 412 0
2019-11-06 23:50:05 GMT 39.540115 -76.892113 30,000 237 410 0
2019-11-06 23:50:02 GMT 39.542175 -76.888176 30,000 236 411 0
2019-11-06 23:49:59 GMT 39.545849 -76.881165 30,000 236 411 0
2019-11-06 23:49:56 GMT 39.548630 -76.875816 30,000 237 411 0
2019-11-06 23:49:52 GMT 39.553070 -76.867393 30,000 237 411 0
2019-11-06 23:49:49 GMT 39.555634 -76.862503 30,000 237 411 0
2019-11-06 23:49:46 GMT 39.559845 -76.854378 30,000 237 411 64
2019-11-06 23:49:43 GMT 39.561859 -76.850525 30,000 237 411 64
2019-11-06 23:49:39 GMT 39.568085 -76.838615 30,000 237 411 0
2019-11-06 23:49:36 GMT 39.571171 -76.832642 30,000 237 411 0
2019-11-06 23:49:30 GMT 39.580341 -76.815125 30,000 237 412 0
2019-11-06 23:49:27 GMT 39.580341 -76.815125 30,000 237 412 0
2019-11-06 23:49:24 GMT 39.583054 -76.809898 30,000 237 412 0
2019-11-06 23:49:19 GMT 39.588272 -76.799927 30,000 237 412 0
2019-11-06 23:49:16 GMT 39.592072 -76.792641 30,000 237 412 64
2019-11-06 23:49:13 GMT 39.594681 -76.787628 30,000 237 412 0
2019-11-06 23:49:10 GMT 39.598869 -76.779602 30,000 237 412 0
2019-11-06 23:49:07 GMT 39.601894 -76.773804 30,000 237 412 0
2019-11-06 23:49:04 GMT 39.610657 -76.756996 30,000 237 412 0
2019-11-06 23:48:59 GMT 39.610657 -76.756996 30,000 237 412 0
2019-11-06 23:48:56 GMT 39.613220 -76.752045 30,000 237 412 64
2019-11-06 23:48:50 GMT 39.620087 -76.738846 30,000 237 412 0
2019-11-06 23:48:47 GMT 39.622425 -76.734314 30,000 237 412 0
2019-11-06 23:48:44 GMT 39.625626 -76.728218 30,000 237 412 0
2019-11-06 23:48:41 GMT 39.634018 -76.712036 30,000 237 412 -64
2019-11-06 23:48:37 GMT 39.634018 -76.712036 30,000 237 411 -64
2019-11-06 23:48:31 GMT 39.638947 -76.702599 30,000 237 411 0
2019-11-06 23:48:26 GMT 39.644676 -76.691528 30,000 237 411 0
2019-11-06 23:48:23 GMT 39.647285 -76.686584 30,000 237 411 64
2019-11-06 23:48:20 GMT 39.652130 -76.677223 30,000 237 410 64
2019-11-06 23:48:15 GMT 39.656479 -76.668869 30,000 237 410 0
2019-11-06 23:48:12 GMT 39.660549 -76.661011 30,000 237 410 0
2019-11-06 23:48:09 GMT 39.662693 -76.656921 30,000 237 410 -64
2019-11-06 23:48:05 GMT 39.668015 -76.646599 30,000 237 410 -64
2019-11-06 23:48:02 GMT 39.670074 -76.642593 30,000 237 410 0
2019-11-06 23:47:59 GMT 39.673351 -76.636292 30,000 237 410 -64
2019-11-06 23:47:56 GMT 39.676117 -76.630951 30,000 237 410 -64
2019-11-06 23:47:53 GMT 39.679779 -76.623962 30,000 237 410 -64
2019-11-06 23:47:50 GMT 39.682758 -76.618164 30,000 237 410 0
2019-11-06 23:47:46 GMT 39.686993 -76.609985 30,000 237 410 0
2019-11-06 23:47:42 GMT 39.692116 -76.600098 30,000 237 410 0
2019-11-06 23:47:36 GMT 39.698685 -76.587425 30,000 237 411 0
2019-11-06 23:47:32 GMT 39.701660 -76.581696 30,000 237 411 0
2019-11-06 23:47:28 GMT 39.706009 -76.573273 30,000 237 411 0
2019-11-06 23:47:25 GMT 39.709396 -76.566765 30,000 237 411 0
2019-11-06 23:47:21 GMT 39.713436 -76.558899 30,000 237 411 0
2019-11-06 23:47:18 GMT 39.720840 -76.544617 30,000 237 411 0
2019-11-06 23:47:15 GMT 39.720840 -76.544617 30,000 237 412 0
2019-11-06 23:47:12 GMT 39.724094 -76.538269 30,000 237 411 0
2019-11-06 23:47:09 GMT 39.726334 -76.533989 30,000 237 411 0
2019-11-06 23:47:06 GMT 39.729633 -76.527649 30,000 237 411 0
2019-11-06 23:47:03 GMT 39.732613 -76.521851 30,000 237 412 -64
2019-11-06 23:47:00 GMT 39.735764 -76.515656 30,000 237 412 -64
2019-11-06 23:46:55 GMT 39.741505 -76.504578 30,000 237 412 -64
2019-11-06 23:46:52 GMT 39.744278 -76.499237 30,000 237 412 0
2019-11-06 23:46:48 GMT 39.748814 -76.490479 30,000 237 412 0
2019-11-06 23:46:45 GMT 39.752884 -76.482574 30,000 237 412 0
2019-11-06 23:46:42 GMT 39.755146 -76.478149 30,000 237 412 0
2019-11-06 23:46:39 GMT 39.762634 -76.463654 30,000 237 412 0
2019-11-06 23:46:35 GMT 39.765804 -76.457520 30,000 237 411 0
2019-11-06 23:46:32 GMT 39.765804 -76.457520 30,000 237 411 0
2019-11-06 23:46:29 GMT 39.769043 -76.451286 30,000 237 411 0
2019-11-06 23:46:26 GMT 39.771057 -76.447350 30,000 237 411 0
2019-11-06 23:46:23 GMT 39.775818 -76.438095 30,000 237 411 0
2019-11-06 23:46:19 GMT 39.783371 -76.423409 30,000 237 408 0
2019-11-06 23:46:12 GMT 39.787453 -76.415527 30,000 237 411 0
2019-11-06 23:46:09 GMT 39.793625 -76.403526 30,000 237 410 0
2019-11-06 23:46:06 GMT 39.793625 -76.403526 30,000 237 410 0
2019-11-06 23:46:02 GMT 39.796646 -76.397675 30,000 237 410 0
2019-11-06 23:45:59 GMT 39.801315 -76.388596 30,000 237 410 0
2019-11-06 23:45:55 GMT 39.804291 -76.382805 30,000 237 410 0
2019-11-06 23:45:51 GMT 39.812916 -76.366089 30,000 237 409 0
2019-11-06 23:45:47 GMT 39.812916 -76.366089 30,000 237 409 0
2019-11-06 23:45:43 GMT 39.817841 -76.356476 30,000 237 409 0
2019-11-06 23:45:40 GMT 39.826511 -76.339600 30,000 237 409 0
2019-11-06 23:45:35 GMT 39.826511 -76.339600 30,000 237 409 0
2019-11-06 23:45:32 GMT 39.828186 -76.336365 30,000 237 409 0
2019-11-06 23:45:29 GMT 39.835262 -76.322571 30,000 237 408 0
2019-11-06 23:45:26 GMT 39.837250 -76.318741 30,000 237 408 0
2019-11-06 23:45:23 GMT 39.837250 -76.318741 30,000 237 409 -64
2019-11-06 23:45:19 GMT 39.842525 -76.308472 30,000 237 409 0
2019-11-06 23:45:16 GMT 39.846249 -76.301208 30,000 237 409 -64
2019-11-06 23:45:10 GMT 39.851578 -76.290794 30,000 237 409 0
2019-11-06 23:45:04 GMT 39.858765 -76.276825 30,000 237 409 0
2019-11-06 23:45:01 GMT 39.865082 -76.264465 30,000 237 408 0
2019-11-06 23:44:57 GMT 39.869522 -76.255798 30,000 237 408 -64
2019-11-06 23:44:53 GMT 39.869522 -76.255798 30,000 237 408 0
2019-11-06 23:44:50 GMT 39.872456 -76.250061 30,000 237 408 0
2019-11-06 23:44:47 GMT 39.880417 -76.234558 30,000 237 408 0
2019-11-06 23:44:43 GMT 39.880417 -76.234558 30,000 237 408 0
2019-11-06 23:44:40 GMT 39.883675 -76.228149 30,000 237 408 0
2019-11-06 23:44:36 GMT 39.891495 -76.212936 30,000 237 408 0
2019-11-06 23:44:32 GMT 39.891495 -76.212936 30,000 237 408 0
2019-11-06 23:44:28 GMT 39.895615 -76.204872 30,000 237 408 0
2019-11-06 23:44:21 GMT 39.902157 -76.192017 30,000 237 408 0
2019-11-06 23:44:18 GMT 39.906052 -76.184395 30,000 237 408 0
2019-11-06 23:44:15 GMT 39.913284 -76.170303 30,000 237 407 0
2019-11-06 23:44:12 GMT 39.913284 -76.170303 30,000 237 408 0
2019-11-06 23:44:09 GMT 39.915390 -76.166245 30,000 237 408 0
2019-11-06 23:44:06 GMT 39.919289 -76.158630 30,000 237 408 -64
2019-11-06 23:44:02 GMT 39.926456 -76.144554 30,000 237 408 0
2019-11-06 23:43:59 GMT 39.926456 -76.144554 30,000 237 408 64
2019-11-06 23:43:55 GMT 39.930134 -76.137375 30,000 237 408 64
2019-11-06 23:43:51 GMT 39.935486 -76.126953 30,000 237 408 -64
2019-11-06 23:43:48 GMT 39.937546 -76.122864 30,000 237 408 -64
2019-11-06 23:43:45 GMT 39.940704 -76.116714 30,000 237 407 -64
2019-11-06 23:43:40 GMT 39.946987 -76.104416 30,000 237 407 64
2019-11-06 23:43:37 GMT 39.948395 -76.101624 30,000 237 407 64
2019-11-06 23:43:34 GMT 39.953018 -76.092529 30,000 237 407 0
2019-11-06 23:43:30 GMT 39.956158 -76.086380 30,000 237 407 64
2019-11-06 23:43:26 GMT 39.963280 -76.072456 30,000 237 407 0
2019-11-06 23:43:20 GMT 39.966385 -76.066345 30,000 237 407 0
2019-11-06 23:43:17 GMT 39.969727 -76.059814 30,000 237 407 0
2019-11-06 23:43:14 GMT 39.973434 -76.052429 30,000 237 407 0
2019-11-06 23:43:09 GMT 39.981297 -76.037064 30,000 237 407 0
2019-11-06 23:43:03 GMT 39.984230 -76.031319 30,000 237 407 0
2019-11-06 23:42:57 GMT 39.991722 -76.016525 30,000 237 406 0
2019-11-06 23:42:53 GMT 39.994656 -76.010780 30,000 237 406 0
2019-11-06 23:42:49 GMT 39.999847 -76.000549 30,000 237 406 0
2019-11-06 23:42:45 GMT 40.003143 -75.994080 30,000 237 406 64
2019-11-06 23:42:42 GMT 40.007133 -75.986252 30,000 237 404 0
2019-11-06 23:42:38 GMT 40.009602 -75.981384 30,000 237 406 0
2019-11-06 23:42:35 GMT 40.013836 -75.973015 30,000 237 406 -64
2019-11-06 23:42:32 GMT 40.016304 -75.968208 30,000 237 406 -64
2019-11-06 23:42:28 GMT 40.019703 -75.961472 30,000 237 406 64
2019-11-06 23:42:25 GMT 40.023472 -75.954102 30,000 237 406 64
2019-11-06 23:42:22 GMT 40.026901 -75.947266 30,000 237 406 -64
2019-11-06 23:42:18 GMT 40.031387 -75.938499 30,000 237 406 -64
2019-11-06 23:42:14 GMT 40.034691 -75.932007 30,000 237 406 64
2019-11-06 23:42:11 GMT 40.038090 -75.925331 30,000 237 406 0
2019-11-06 23:42:07 GMT 40.041813 -75.917961 30,000 237 406 0
2019-11-06 23:42:04 GMT 40.045349 -75.910950 30,000 237 406 0
2019-11-06 23:42:01 GMT 40.048279 -75.905212 30,000 237 406 0
2019-11-06 23:41:58 GMT 40.051987 -75.897888 30,000 237 405 0
2019-11-06 23:41:55 GMT 40.054825 -75.892273 30,000 237 405 0
2019-11-06 23:41:52 GMT 40.057846 -75.886353 30,000 237 405 0
2019-11-06 23:41:48 GMT 40.062012 -75.878113 30,000 237 405 0
2019-11-06 23:41:44 GMT 40.066021 -75.870209 30,000 237 404 0
2019-11-06 23:41:41 GMT 40.069328 -75.863655 30,000 237 405 0
2019-11-06 23:41:38 GMT 40.072861 -75.856689 30,000 237 404 -64
2019-11-06 23:41:34 GMT 40.077438 -75.847656 30,000 237 405 -64
2019-11-06 23:41:31 GMT 40.079498 -75.843506 30,000 237 404 0
2019-11-06 23:41:27 GMT 40.084690 -75.833252 30,000 237 405 0
2019-11-06 23:41:24 GMT 40.087204 -75.828323 30,000 237 405 0
2019-11-06 23:41:20 GMT 40.090759 -75.821289 30,000 237 405 0
2019-11-06 23:41:16 GMT 40.095337 -75.812195 30,000 237 405 0
2019-11-06 23:41:13 GMT 40.097809 -75.807312 30,000 237 405 0
2019-11-06 23:41:10 GMT 40.100784 -75.801392 30,000 237 404 0
2019-11-06 23:41:06 GMT 40.106186 -75.790649 30,000 237 404 0
2019-11-06 23:41:03 GMT 40.108803 -75.785500 30,000 237 404 0
2019-11-06 23:40:59 GMT 40.112411 -75.778320 30,000 237 403 64
2019-11-06 23:40:54 GMT 40.118546 -75.766174 30,000 237 404 0
2019-11-06 23:40:47 GMT 40.128159 -75.747131 30,000 237 404 0
2019-11-06 23:40:44 GMT 40.128159 -75.747131 30,000 237 404 0
2019-11-06 23:40:38 GMT 40.134174 -75.735191 30,000 237 404 0
2019-11-06 23:40:33 GMT 40.139420 -75.724731 30,000 237 404 0
2019-11-06 23:40:28 GMT 40.144184 -75.715279 30,000 237 404 0
2019-11-06 23:40:25 GMT 40.151260 -75.701233 30,000 237 403 64
2019-11-06 23:40:22 GMT 40.154388 -75.695068 30,000 237 405 0
2019-11-06 23:40:19 GMT 40.154388 -75.695068 30,000 237 405 0
2019-11-06 23:40:14 GMT 40.159126 -75.685684 30,000 237 405 0
2019-11-06 23:40:11 GMT 40.161804 -75.680359 30,000 237 405 0
2019-11-06 23:40:07 GMT 40.165237 -75.673523 30,000 237 405 0
2019-11-06 23:40:04 GMT 40.172333 -75.659424 30,000 237 404 0
2019-11-06 23:40:01 GMT 40.172333 -75.659424 30,000 237 404 64
2019-11-06 23:39:58 GMT 40.176041 -75.652039 30,000 237 403 64
2019-11-06 23:39:55 GMT 40.178146 -75.647949 30,000 237 403 0
2019-11-06 23:39:52 GMT 40.181236 -75.641808 30,000 237 403 -64
2019-11-06 23:39:49 GMT 40.188732 -75.626945 30,000 237 404 64
2019-11-06 23:39:45 GMT 40.188732 -75.626945 30,000 237 403 64
2019-11-06 23:39:42 GMT 40.192245 -75.619873 30,000 237 403 64
2019-11-06 23:39:39 GMT 40.194305 -75.615723 30,000 238 403 -128
2019-11-06 23:39:34 GMT 40.199348 -75.605476 30,000 238 402 -128
2019-11-06 23:39:30 GMT 40.204559 -75.595093 30,000 237 400 64
2019-11-06 23:39:27 GMT 40.207634 -75.589058 30,000 236 401 64
2019-11-06 23:39:24 GMT 40.209774 -75.584938 29,150 233 396 0
2019-11-06 23:39:21 GMT 40.212891 -75.579041 30,000 234 397 192
2019-11-06 23:39:18 GMT 40.216003 -75.573303 30,000 234 396 192
2019-11-06 23:39:12 GMT 40.223602 -75.559532 30,000 234 396 192
2019-11-06 23:39:08 GMT 40.232391 -75.544495 30,000 233 396 0
2019-11-06 23:39:04 GMT 40.232391 -75.544495 29,975 232 396 384
2019-11-06 23:39:00 GMT 40.237015 -75.536926 29,975 232 396 512
2019-11-06 23:38:57 GMT 40.238686 -75.534248 29,925 231 396 960
2019-11-06 23:38:54 GMT 40.242920 -75.527573 29,875 231 396 960
2019-11-06 23:38:51 GMT 40.247818 -75.519958 29,825 231 396 1024
2019-11-06 23:38:48 GMT 40.250153 -75.516235 29,750 231 396 896
2019-11-06 23:38:45 GMT 40.253765 -75.510597 29,750 231 396 896
2019-11-06 23:38:41 GMT 40.259354 -75.501892 29,675 231 396 896
2019-11-06 23:38:38 GMT 40.262890 -75.496300 29,625 231 396 960
2019-11-06 23:38:35 GMT 40.266495 -75.490662 29,575 231 396 960
2019-11-06 23:38:32 GMT 40.268875 -75.486938 29,550 231 396 960
2019-11-06 23:38:29 GMT 40.272125 -75.481873 29,425 231 396 1024
2019-11-06 23:38:26 GMT 40.275787 -75.476074 29,450 231 396 960
2019-11-06 23:38:23 GMT 40.280113 -75.469330 29,400 231 396 896
2019-11-06 23:38:19 GMT 40.284073 -75.463135 29,350 231 396 832
2019-11-06 23:38:16 GMT 40.287239 -75.458099 29,325 231 366 1088
2019-11-06 23:38:13 GMT 40.291672 -75.451233 29,200 231 396 768
2019-11-06 23:38:10 GMT 40.295849 -75.444679 29,150 231 396 768
2019-11-06 23:38:07 GMT 40.298904 -75.439819 29,175 231 395 896
2019-11-06 23:38:04 GMT 40.301147 -75.436279 29,175 231 395 832
2019-11-06 23:38:01 GMT 40.305084 -75.430115 29,125 231 395 832
2019-11-06 23:37:58 GMT 40.308651 -75.424515 29,000 231 395 896
2019-11-06 23:37:55 GMT 40.312134 -75.419067 28,975 231 395 960
2019-11-06 23:37:52 GMT 40.316612 -75.412025 28,950 231 395 896
2019-11-06 23:37:49 GMT 40.318985 -75.408348 28,950 231 395 768
2019-11-06 23:37:46 GMT 40.322617 -75.402527 28,950 231 395 768
2019-11-06 23:37:43 GMT 40.330856 -75.389618 28,850 231 394 832
2019-11-06 23:37:39 GMT 40.330856 -75.389618 28,800 231 394 832
2019-11-06 23:37:36 GMT 40.334930 -75.383240 28,775 231 394 768
2019-11-06 23:37:31 GMT 40.341431 -75.372986 28,700 231 393 704
2019-11-06 23:37:28 GMT 40.344818 -75.367615 28,675 231 392 704
2019-11-06 23:37:25 GMT 40.347382 -75.363586 28,625 231 392 576
2019-11-06 23:37:22 GMT 40.351364 -75.357361 28,625 231 392 512
2019-11-06 23:37:19 GMT 40.354877 -75.351791 28,600 231 391 384
2019-11-06 23:37:13 GMT 40.360703 -75.342590 28,575 231 387 192
2019-11-06 23:37:10 GMT 40.364746 -75.336311 28,550 231 388 192
2019-11-06 23:37:07 GMT 40.367294 -75.332275 28,550 231 386 192
2019-11-06 23:37:04 GMT 40.371220 -75.326073 28,550 231 386 192
2019-11-06 23:37:00 GMT 40.376541 -75.317749 28,525 231 384 192
2019-11-06 23:36:57 GMT 40.380203 -75.311951 28,525 231 382 320
2019-11-06 23:36:54 GMT 40.382763 -75.307968 28,525 231 382 320
2019-11-06 23:36:51 GMT 40.386200 -75.302490 28,375 231 372 960
2019-11-06 23:36:48 GMT 40.392059 -75.293274 28,450 231 379 640
2019-11-06 23:36:42 GMT 40.399616 -75.281319 28,375 231 379 960
2019-11-06 23:36:39 GMT 40.399616 -75.281319 28,050 231 375 960
2019-11-06 23:36:36 GMT 40.404037 -75.274323 28,325 231 377 960
2019-11-06 23:36:32 GMT 40.407394 -75.269043 28,250 231 377 960
2019-11-06 23:36:29 GMT 40.411102 -75.263245 28,225 231 377 896
2019-11-06 23:36:26 GMT 40.415176 -75.256775 28,175 231 377 896
2019-11-06 23:36:22 GMT 40.418564 -75.251480 28,075 231 375 960
2019-11-06 23:36:19 GMT 40.422985 -75.244484 28,050 231 375 896
2019-11-06 23:36:15 GMT 40.426243 -75.239372 27,950 231 372 960
2019-11-06 23:36:11 GMT 40.430099 -75.233276 27,925 231 375 960
2019-11-06 23:36:07 GMT 40.436279 -75.223450 27,875 231 373 960
2019-11-06 23:36:04 GMT 40.439713 -75.218018 27,825 231 372 960
2019-11-06 23:36:01 GMT 40.442963 -75.212891 27,775 231 372 960
2019-11-06 23:35:58 GMT 40.445114 -75.209473 27,700 231 372 960
2019-11-06 23:35:54 GMT 40.449425 -75.202599 27,675 231 372 960
2019-11-06 23:35:51 GMT 40.452713 -75.197388 27,150 231 367 1088
2019-11-06 23:35:48 GMT 40.456875 -75.190804 27,575 231 370 960
2019-11-06 23:35:44 GMT 40.460266 -75.185425 27,500 231 369 960
2019-11-06 23:35:41 GMT 40.464249 -75.179138 27,450 231 368 1024
2019-11-06 23:35:37 GMT 40.467999 -75.173141 27,350 231 367 1088
2019-11-06 23:35:34 GMT 40.471298 -75.167908 27,300 231 368 1088
2019-11-06 23:35:30 GMT 40.478985 -75.155785 27,275 231 367 1088
2019-11-06 23:35:27 GMT 40.478985 -75.155785 27,150 231 366 1152
2019-11-06 23:35:23 GMT 40.483410 -75.148796 27,200 231 367 1088
2019-11-06 23:35:20 GMT 40.487225 -75.142677 27,100 231 366 1088
2019-11-06 23:35:17 GMT 40.489834 -75.138557 27,050 231 365 1216
2019-11-06 23:35:14 GMT 40.494049 -75.131836 26,975 231 365 1216
2019-11-06 23:35:11 GMT 40.496704 -75.127686 26,900 231 364 1280
2019-11-06 23:35:08 GMT 40.498856 -75.124268 26,900 231 364 1280
2019-11-06 23:35:05 GMT 40.501877 -75.119446 26,825 231 364 1280
2019-11-06 23:35:02 GMT 40.506313 -75.112335 26,725 231 363 1408
2019-11-06 23:34:59 GMT 40.510269 -75.106094 26,650 231 363 1600
2019-11-06 23:34:56 GMT 40.512268 -75.102905 26,600 231 363 1536
2019-11-06 23:34:52 GMT 40.516617 -75.095947 26,525 231 363 1728
2019-11-06 23:34:48 GMT 40.525223 -75.082214 26,325 231 365 1792
2019-11-06 23:34:45 GMT 40.525223 -75.082214 24,800 242 358 1344
2019-11-06 23:34:42 GMT 40.528381 -75.077209 26,150 231 365 1728
2019-11-06 23:34:38 GMT 40.530945 -75.073120 26,100 231 365 1728
2019-11-06 23:34:34 GMT 40.535843 -75.065430 25,950 231 365 1664
2019-11-06 23:34:31 GMT 40.538910 -75.060608 25,875 231 366 1600
2019-11-06 23:34:28 GMT 40.541519 -75.056396 25,850 232 365 1536
2019-11-06 23:34:25 GMT 40.545185 -75.050354 25,750 233 364 1472
2019-11-06 23:34:22 GMT 40.548489 -75.044609 25,650 238 361 1472
2019-11-06 23:34:19 GMT 40.552029 -75.038246 25,575 235 363 1408
2019-11-06 23:34:16 GMT 40.554356 -75.033875 25,525 237 362 1408
2019-11-06 23:34:13 GMT 40.557220 -75.028320 25,450 237 362 1472
2019-11-06 23:34:10 GMT 40.559509 -75.023743 25,350 238 361 1408
2019-11-06 23:34:07 GMT 40.562550 -75.017334 25,150 242 358 1344
2019-11-06 23:34:04 GMT 40.565620 -75.010468 25,225 241 359 1344
2019-11-06 23:33:58 GMT 40.570648 -74.998047 25,100 243 358 1280
2019-11-06 23:33:55 GMT 40.572830 -74.992249 25,025 245 356 1344
2019-11-06 23:33:49 GMT 40.576721 -74.981812 24,875 245 355 1344
2019-11-06 23:33:46 GMT 40.578236 -74.977692 24,825 245 355 1344
2019-11-06 23:33:43 GMT 40.580936 -74.970329 24,800 245 355 1344
2019-11-06 23:33:40 GMT 40.582489 -74.966187 24,700 245 354 1216
2019-11-06 23:33:37 GMT 40.585419 -74.958191 24,650 245 354 1152
2019-11-06 23:33:33 GMT 40.588531 -74.949646 24,550 245 351 1088
2019-11-06 23:33:30 GMT 40.590042 -74.945618 24,550 245 351 1088
2019-11-06 23:33:27 GMT 40.592480 -74.939056 24,500 245 346 1472
2019-11-06 23:33:24 GMT 40.595089 -74.932060 24,425 245 350 1216
2019-11-06 23:33:20 GMT 40.597088 -74.926636 24,350 245 348 1280
2019-11-06 23:33:17 GMT 40.599792 -74.919250 24,300 245 348 1344
2019-11-06 23:33:13 GMT 40.602489 -74.911964 24,125 245 347 1472
2019-11-06 23:33:10 GMT 40.604874 -74.905457 24,100 245 347 1472
2019-11-06 23:33:06 GMT 40.606888 -74.900024 23,950 245 346 1472
2019-11-06 23:33:03 GMT 40.608727 -74.894981 23,975 245 346 1472
2019-11-06 23:33:00 GMT 40.611099 -74.888550 23,775 245 343 1472
2019-11-06 23:32:57 GMT 40.613243 -74.882751 23,750 245 336 1472
2019-11-06 23:32:54 GMT 40.615479 -74.876694 23,725 245 344 1472
2019-11-06 23:32:51 GMT 40.617477 -74.871330 23,675 245 344 1472
2019-11-06 23:32:48 GMT 40.619434 -74.865959 23,575 245 343 1472
2019-11-06 23:32:44 GMT 40.622272 -74.858345 23,500 245 342 1472
2019-11-06 23:32:41 GMT 40.624924 -74.851135 23,400 245 342 1472
2019-11-06 23:32:38 GMT 40.626068 -74.848083 23,350 245 341 1472
2019-11-06 23:32:33 GMT 40.632156 -74.831421 23,200 245 339 1472
2019-11-06 23:32:30 GMT 40.632156 -74.831421 23,150 245 339 1472
2019-11-06 23:32:27 GMT 40.634239 -74.825821 23,075 245 339 1472
2019-11-06 23:32:24 GMT 40.635540 -74.822197 23,025 245 338 1472
2019-11-06 23:32:21 GMT 40.637775 -74.816086 22,975 245 337 1472
2019-11-06 23:32:18 GMT 40.640121 -74.809692 22,850 245 336 1472
2019-11-06 23:32:15 GMT 40.642365 -74.803650 22,750 245 335 1792
2019-11-06 23:32:11 GMT 40.646713 -74.791809 22,625 245 335 1920
2019-11-06 23:32:08 GMT 40.648682 -74.786438 22,500 245 335 2176
2019-11-06 23:32:05 GMT 40.648682 -74.786438 22,400 245 335 2176
2019-11-06 23:32:02 GMT 40.651428 -74.779053 22,325 245 335 2176
2019-11-06 23:31:59 GMT 40.653076 -74.774597 22,250 245 335 2176
2019-11-06 23:31:55 GMT 40.655823 -74.767090 22,025 245 336 2240
2019-11-06 23:31:52 GMT 40.657974 -74.761169 21,925 245 336 2240
2019-11-06 23:31:49 GMT 40.659668 -74.756653 21,825 245 336 2240
2019-11-06 23:31:46 GMT 40.661270 -74.752258 21,825 245 336 2240
2019-11-06 23:31:43 GMT 40.663696 -74.745605 21,650 245 337 2176
2019-11-06 23:31:39 GMT 40.666359 -74.738426 21,475 245 337 2112
2019-11-06 23:31:35 GMT 40.669510 -74.729797 21,250 245 337 2048
2019-11-06 23:31:32 GMT 40.672760 -74.720825 21,225 245 337 1984
2019-11-06 23:31:29 GMT 40.672760 -74.720825 21,125 245 336 1920
2019-11-06 23:31:26 GMT 40.677704 -74.707336 21,050 245 336 1920
2019-11-06 23:31:23 GMT 40.677704 -74.707336 20,975 245 336 1920
2019-11-06 23:31:20 GMT 40.679207 -74.703285 20,825 245 335 1920
2019-11-06 23:31:17 GMT 40.681953 -74.695854 20,775 245 335 1920
2019-11-06 23:31:14 GMT 40.683582 -74.691360 20,725 245 335 1920
2019-11-06 23:31:11 GMT 40.687271 -74.681274 20,525 245 333 1920
2019-11-06 23:31:08 GMT 40.689194 -74.676086 20,450 245 334 1920
2019-11-06 23:31:05 GMT 40.689194 -74.676086 20,400 245 334 1920
2019-11-06 23:31:02 GMT 40.691620 -74.669434 20,250 245 333 1920
2019-11-06 23:30:58 GMT 40.695827 -74.657845 20,125 245 330 1856
2019-11-06 23:30:55 GMT 40.698246 -74.651222 20,075 245 331 1920
2019-11-06 23:30:52 GMT 40.698246 -74.651222 19,575 245 328 1920
2019-11-06 23:30:48 GMT 40.700901 -74.643982 19,875 245 330 1920
2019-11-06 23:30:44 GMT 40.705276 -74.632065 19,725 245 330 1856
2019-11-06 23:30:41 GMT 40.705276 -74.632065 19,575 245 329 1856
2019-11-06 23:30:37 GMT 40.708374 -74.623657 19,325 245 328 1920
2019-11-06 23:30:33 GMT 40.710117 -74.618950 19,225 245 327 1984
2019-11-06 23:30:30 GMT 40.712311 -74.612854 19,325 245 327 1984
2019-11-06 23:30:27 GMT 40.714508 -74.606873 18,950 245 326 2048
2019-11-06 23:30:24 GMT 40.717163 -74.599670 19,075 245 326 2048
2019-11-06 23:30:19 GMT 40.719383 -74.593544 18,975 245 326 2112
2019-11-06 23:30:16 GMT 40.721245 -74.588364 18,850 245 325 2368
2019-11-06 23:30:13 GMT 40.723480 -74.582275 18,575 245 325 2304
2019-11-06 23:30:10 GMT 40.725311 -74.577332 17,575 245 322 2432
2019-11-06 23:30:07 GMT 40.728241 -74.569275 18,450 245 325 2304
2019-11-06 23:30:04 GMT 40.729523 -74.565735 18,375 245 325 2304
2019-11-06 23:30:01 GMT 40.731171 -74.561279 18,325 245 325 2240
2019-11-06 23:29:58 GMT 40.733952 -74.553658 18,100 245 323 2176
2019-11-06 23:29:55 GMT 40.735382 -74.549683 18,000 245 323 2176
2019-11-06 23:29:52 GMT 40.737762 -74.543213 17,900 245 323 2176
2019-11-06 23:29:49 GMT 40.739365 -74.538818 17,750 245 323 2240
2019-11-06 23:29:46 GMT 40.741196 -74.533752 17,575 245 323 2304
2019-11-06 23:29:43 GMT 40.742844 -74.529251 17,575 245 322 2368
2019-11-06 23:29:40 GMT 40.745682 -74.521545 17,400 245 322 2496
2019-11-06 23:29:36 GMT 40.748104 -74.514832 17,325 245 322 2368
2019-11-06 23:29:32 GMT 40.750759 -74.507530 17,075 245 322 2176
2019-11-06 23:29:29 GMT 40.752182 -74.503601 17,025 245 322 1984
2019-11-06 23:29:25 GMT 40.755020 -74.495789 16,875 245 322 1920
2019-11-06 23:29:21 GMT 40.757275 -74.489616 16,725 245 322 1600
2019-11-06 23:29:18 GMT 40.759651 -74.483185 16,700 245 321 1408
2019-11-06 23:29:15 GMT 40.761612 -74.477783 16,625 245 321 896
2019-11-06 23:29:12 GMT 40.762894 -74.474243 16,600 245 320 640
2019-11-06 23:29:08 GMT 40.766121 -74.465332 16,575 245 318 512
2019-11-06 23:29:05 GMT 40.769985 -74.454659 16,550 245 318 960
2019-11-06 23:29:02 GMT 40.769985 -74.454659 16,475 245 317 1216
2019-11-06 23:28:59 GMT 40.771523 -74.450417 16,400 245 315 1728
2019-11-06 23:28:56 GMT 40.773468 -74.445068 16,375 245 316 1792
2019-11-06 23:28:53 GMT 40.774639 -74.441864 16,300 245 315 1792
2019-11-06 23:28:50 GMT 40.779373 -74.428894 16,075 245 315 1728
2019-11-06 23:28:47 GMT 40.779373 -74.428894 16,050 245 315 1664
2019-11-06 23:28:43 GMT 40.781528 -74.422882 16,000 245 314 1536
2019-11-06 23:28:40 GMT 40.783020 -74.418762 15,900 245 314 1408
2019-11-06 23:28:37 GMT 40.785736 -74.411255 15,850 245 313 1216
2019-11-06 23:28:34 GMT 40.786835 -74.408279 15,825 245 312 1152
2019-11-06 23:28:31 GMT 40.788651 -74.403221 15,750 245 312 1088
2019-11-06 23:28:28 GMT 40.791164 -74.396355 15,675 245 309 896
2019-11-06 23:28:25 GMT 40.792889 -74.391548 15,650 245 306 896
2019-11-06 23:28:22 GMT 40.794205 -74.387939 15,600 245 305 960
2019-11-06 23:28:19 GMT 40.796333 -74.382126 15,525 245 303 1280
2019-11-06 23:28:16 GMT 40.798370 -74.376404 15,450 245 302 1728
2019-11-06 23:28:12 GMT 40.800941 -74.369324 15,300 245 301 1792
2019-11-06 23:28:09 GMT 40.802582 -74.364807 15,200 245 300 1600
2019-11-06 23:28:06 GMT 40.804386 -74.359779 15,200 245 300 1600
2019-11-06 23:28:03 GMT 40.806110 -74.355095 15,100 245 299 1472
2019-11-06 23:27:57 GMT 40.810089 -74.344116 14,925 245 296 1472
2019-11-06 23:27:53 GMT 40.811554 -74.340088 14,850 245 295 1664
2019-11-06 23:27:50 GMT 40.813278 -74.335243 14,750 245 294 1600
2019-11-06 23:27:47 GMT 40.815651 -74.328690 14,700 245 294 1472
2019-11-06 23:27:44 GMT 40.817413 -74.323792 14,675 245 293 1408
2019-11-06 23:27:41 GMT 40.819336 -74.318481 14,450 245 288 1344
2019-11-06 23:27:38 GMT 40.820526 -74.315186 14,475 245 288 1344
2019-11-06 23:27:35 GMT 40.822777 -74.308968 14,425 245 288 1472
2019-11-06 23:27:31 GMT 40.826614 -74.298401 14,250 245 285 1920
2019-11-06 23:27:28 GMT 40.826614 -74.298401 14,200 245 284 2112
2019-11-06 23:27:25 GMT 40.827850 -74.294853 14,075 245 284 2368
2019-11-06 23:27:21 GMT 40.830276 -74.288208 14,050 245 284 2368
2019-11-06 23:27:18 GMT 40.831944 -74.283623 13,800 245 284 2624
2019-11-06 23:27:15 GMT 40.833622 -74.278938 13,725 245 284 2624
2019-11-06 23:27:11 GMT 40.835903 -74.272636 13,575 245 285 2624
2019-11-06 23:27:07 GMT 40.838184 -74.266327 13,325 245 286 2624
2019-11-06 23:27:04 GMT 40.839890 -74.261597 13,200 245 286 2560
2019-11-06 23:27:00 GMT 40.843769 -74.250847 13,000 245 286 2432
2019-11-06 23:26:54 GMT 40.845520 -74.246033 12,900 245 286 2304
2019-11-06 23:26:50 GMT 40.847809 -74.239563 12,675 245 286 2304
2019-11-06 23:26:47 GMT 40.849182 -74.235840 12,275 245 285 2112
2019-11-06 23:26:44 GMT 40.851639 -74.229004 12,450 245 285 1984
2019-11-06 23:26:41 GMT 40.854309 -74.221619 12,300 245 284 2048
2019-11-06 23:26:35 GMT 40.856598 -74.215271 12,100 245 283 2176
2019-11-06 23:26:32 GMT 40.858200 -74.210815 12,000 245 282 2176
2019-11-06 23:26:29 GMT 40.859692 -74.206718 11,900 245 282 2176
2019-11-06 23:26:26 GMT 40.861359 -74.202026 11,825 245 281 2112
2019-11-06 23:26:23 GMT 40.863602 -74.195801 11,750 245 281 2112
2019-11-06 23:26:20 GMT 40.864674 -74.192795 11,675 245 280 2048
2019-11-06 23:26:17 GMT 40.866165 -74.188721 11,550 245 280 1984
2019-11-06 23:26:14 GMT 40.868256 -74.182869 11,425 245 277 1600
2019-11-06 23:26:10 GMT 40.870350 -74.177132 11,350 245 275 1280
2019-11-06 23:26:07 GMT 40.871750 -74.173218 11,275 245 273 1024
2019-11-06 23:26:04 GMT 40.873425 -74.168510 11,225 245 270 832
2019-11-06 23:26:01 GMT 40.875145 -74.163773 11,225 245 270 832
2019-11-06 23:25:58 GMT 40.877197 -74.158020 10,725 245 257 2560
2019-11-06 23:25:55 GMT 40.878250 -74.155029 11,125 245 263 896
2019-11-06 23:25:52 GMT 40.880402 -74.149048 11,050 245 259 1600
2019-11-06 23:25:49 GMT 40.881290 -74.146538 11,000 245 258 1792
2019-11-06 23:25:46 GMT 40.882690 -74.142700 10,925 245 257 2240
2019-11-06 23:25:43 GMT 40.884521 -74.137573 10,775 245 257 2432
2019-11-06 23:25:39 GMT 40.886444 -74.132202 10,600 245 257 2560
2019-11-06 23:25:36 GMT 40.887993 -74.127876 10,425 245 257 2688
2019-11-06 23:25:32 GMT 40.890274 -74.121513 10,275 245 257 2624
2019-11-06 23:25:29 GMT 40.892075 -74.116577 9,800 245 256 2496
2019-11-06 23:25:26 GMT 40.894836 -74.108772 10,050 245 256 2496
2019-11-06 23:25:23 GMT 40.894836 -74.108772 9,850 245 256 2496
2019-11-06 23:25:20 GMT 40.896194 -74.105042 9,775 245 256 2432
2019-11-06 23:25:17 GMT 40.898144 -74.099602 9,700 245 255 2496
2019-11-06 23:25:12 GMT 40.900425 -74.093292 9,450 245 255 2688
2019-11-06 23:25:09 GMT 40.901962 -74.088989 9,225 245 254 2752
2019-11-06 23:25:06 GMT 40.903309 -74.085182 9,275 245 254 2880
2019-11-06 23:25:02 GMT 40.905544 -74.079002 8,950 245 255 2944
2019-11-06 23:24:59 GMT 40.906754 -74.075569 8,725 245 255 2944
2019-11-06 23:24:56 GMT 40.908245 -74.071510 8,675 245 255 2944
2019-11-06 23:24:52 GMT 40.912445 -74.059692 8,400 245 255 2816
2019-11-06 23:24:48 GMT 40.912445 -74.059692 8,250 245 255 2624
2019-11-06 23:24:45 GMT 40.915329 -74.051636 8,200 245 255 2496
2019-11-06 23:24:42 GMT 40.915329 -74.051636 6,850 275 243 2624
2019-11-06 23:24:39 GMT 40.918671 -74.042297 7,850 245 253 2432
2019-11-06 23:24:36 GMT 40.918671 -74.042297 7,775 245 251 2496
2019-11-06 23:24:32 GMT 40.920181 -74.038025 7,500 249 249 2688
2019-11-06 23:24:29 GMT 40.921326 -74.034607 7,550 247 250 2752
2019-11-06 23:24:25 GMT 40.923340 -74.027710 7,200 259 246 2624
2019-11-06 23:24:21 GMT 40.924259 -74.022697 7,225 259 246 2624
2019-11-06 23:24:18 GMT 40.924759 -74.012573 6,775 269 245 2560
2019-11-06 23:24:15 GMT 40.924759 -74.012573 4,000 298 242 2816
2019-11-06 23:24:09 GMT 40.923607 -74.004097 6,575 288 242 2752
2019-11-06 23:24:06 GMT 40.922241 -73.999207 6,475 302 242 2880
2019-11-06 23:24:02 GMT 40.919369 -73.992729 6,275 307 243 2880
2019-11-06 23:23:56 GMT 40.915737 -73.987236 5,950 321 245 2688
2019-11-06 23:23:52 GMT 40.912308 -73.983521 5,675 328 245 2688
2019-11-06 23:23:49 GMT 40.910198 -73.981743 5,675 328 245 2688
2019-11-06 23:23:46 GMT 40.906986 -73.979187 5,625 330 245 2752
2019-11-06 23:23:43 GMT 40.903976 -73.976929 5,525 330 243 2816
2019-11-06 23:23:40 GMT 40.901402 -73.974945 5,200 330 243 2816
2019-11-06 23:23:37 GMT 40.897072 -73.971573 5,125 330 242 2880
2019-11-06 23:23:34 GMT 40.895691 -73.970459 5,000 329 242 3072
2019-11-06 23:23:31 GMT 40.892368 -73.967827 4,875 329 241 3264
2019-11-06 23:23:28 GMT 40.888878 -73.965080 4,725 329 241 3328
2019-11-06 23:23:25 GMT 40.886181 -73.962959 4,525 329 243 3392
2019-11-06 23:23:22 GMT 40.883972 -73.961121 4,375 329 243 3328
2019-11-06 23:23:19 GMT 40.877892 -73.956276 4,100 329 244 2688
2019-11-06 23:23:16 GMT 40.874771 -73.953781 3,900 329 242 2176
2019-11-06 23:23:13 GMT 40.874771 -73.953781 3,950 329 242 2176
2019-11-06 23:23:08 GMT 40.869747 -73.949783 3,750 329 238 1920
2019-11-06 23:23:04 GMT 40.866852 -73.947510 3,625 329 235 1664
2019-11-06 23:23:01 GMT 40.859756 -73.941833 3,475 329 226 1280
2019-11-06 23:22:57 GMT 40.859756 -73.941833 3,500 329 224 1344
2019-11-06 23:22:53 GMT 40.856094 -73.938904 3,300 330 220 1600
2019-11-06 23:22:47 GMT 40.851562 -73.935425 3,225 330 213 2240
2019-11-06 23:22:43 GMT 40.847351 -73.932190 3,025 331 210 2816
2019-11-06 23:22:36 GMT 40.838554 -73.925629 2,525 331 210 3200
2019-11-06 23:22:32 GMT 40.838554 -73.925629 2,500 331 209 3328
2019-11-06 23:22:25 GMT 40.828453 -73.918137 1,775 331 213 2688
2019-11-06 23:22:21 GMT 40.828453 -73.918137 1,775 331 213 2688
2019-11-06 23:22:17 GMT 40.825150 -73.915649 1,700 331 210 1600
2019-11-06 23:22:14 GMT 40.823090 -73.914124 1,625 331 204 960
2019-11-06 23:22:11 GMT 40.821030 -73.912598 1,625 331 203 896
2019-11-06 23:22:06 GMT 40.816631 -73.909332 1,575 331 147 2240
2019-11-06 23:22:01 GMT 40.812904 -73.906593 1,525 331 182 576
2019-11-06 23:21:56 GMT 40.809090 -73.903778 1,500 331 172 832
2019-11-06 23:21:52 GMT 40.806931 -73.902222 1,050 331 166 960
2019-11-06 23:21:49 GMT 40.805054 -73.900818 1,425 331 165 960
2019-11-06 23:21:46 GMT 40.802170 -73.898682 1,300 332 155 1408
2019-11-06 23:21:43 GMT 40.800613 -73.897583 1,125 331 146 2240
2019-11-06 23:21:40 GMT 40.799034 -73.896416 1,050 331 148 2176
2019-11-06 23:21:33 GMT 40.794422 -73.892982 925 330 147 2240
2019-11-06 23:21:29 GMT 40.792328 -73.891357 775 331 147 2240
2019-11-06 23:21:23 GMT 40.788437 -73.888123 475 321 144 2496
2019-11-06 23:21:20 GMT 40.787201 -73.886658 -400 303 86 0
2019-11-06 23:21:08 GMT 40.782578 -73.878906 -25 303 86 0
2019-11-06 23:20:16 GMT 40.772243 -73.857452 0 303 0
2019-11-06 23:19:45 GMT 40.772243 -73.857460 0 303 0
2019-11-06 23:19:23 GMT 40.772049 -73.857346 0 36 8
2019-11-06 23:19:11 GMT 40.771740 -73.857712 0 45 7
2019-11-06 23:17:58 GMT 40.771500 -73.858047 0 70 2
2019-11-06 23:17:52 GMT 40.771477 -73.858185 0 104 7
2019-11-06 23:17:39 GMT 40.771648 -73.858582 0 123 5
2019-11-06 23:17:29 GMT 40.771740 -73.858795 0 120 2
2019-11-06 23:17:06 GMT 40.771790 -73.858871 0 120 2
2019-11-06 23:16:57 GMT 40.771824 -73.858963 0 123 0
2019-11-06 23:16:50 GMT 40.771854 -73.859024 0 120 4
2019-11-06 23:16:34 GMT 40.771961 -73.859245 0 123 2
2019-11-06 23:16:28 GMT 40.771992 -73.859314 0 123 3
2019-11-06 23:16:16 GMT 40.772095 -73.859528 0 120 2
2019-11-06 23:16:05 GMT 40.772137 -73.859619 0 120 3
2019-11-06 23:15:32 GMT 40.772449 -73.860275 0 123 8
2019-11-06 23:15:18 GMT 40.772850 -73.861099 0 123 14
We lost coverage of the aircraft here for a total of 7 minutes
2019-11-06 23:07:59 GMT 40.775887 -73.873611 0 345 2
2019-11-06 23:07:53 GMT 40.775837 -73.873596 0 343 2
2019-11-06 23:07:43 GMT 40.775757 -73.873566 0 345 2
2019-11-06 23:07:33 GMT 40.775654 -73.873535 0 345 2
2019-11-06 23:07:22 GMT 40.775562 -73.873505 0 354 2
2019-11-06 23:07:10 GMT 40.775459 -73.873505 0 357 2
2019-11-06 23:07:01 GMT 40.775444 -73.873505 0 354 0
2019-11-06 23:06:50 GMT 40.775505 -73.873505 0 0 2

Making use of Plane Finder data

You are free to use the raw flight data, aircraft information and images provided in this report for your own purposes provided the data is correctly attributed to Plane Finder. We ask that you please credit Plane Finder and link to planefinder.net in close proximity to the content.

Optionally one of the following logos (no smaller then 150x24px) can be used and must link to planefinder.net

Embedding the Plane Finder map

You are welcome to embed the Plane Finder playback map on your website to offer visitors a more interactive experience. We suggest using the following HTML code:

<iframe src="//planefinder.net/data/report/AA4439-N117HQ-7700-squawk-2019-11-07/map" width="800" height="600" seamless="seamless"></iframe>

Where our data comes from

Plane Finder has a global network of data feeds and antenna radars that receive data broadcast directly from aircraft. The primary technologies used are ADS-B and MLAT. We also show feeds from the FAA and a FLARM glider feed.

Click here to find out more about the Plane Finder network.

How we collect our data